<?xml version="1.0" encoding="UTF-8" standalone="no" ?>
<gpx xmlns="http://www.topografix.com/GPX/1/1" xmlns:xsi="http://www.w3.org/2001/XMLSchema-instance" xsi:schemaLocation="http://www.topografix.com/GPX/1/1 http://www.topografix.com/GPX/1/1/gpx.xsd" version="1.1" creator="VisuGPX - https://www.visugpx.com">
  <metadata>
    <name>Chemin Faisant à Sainte Croix du Mont</name>
    <desc><![CDATA[Pluie et vent ...]]></desc>
  </metadata>
  <trk>
    <name><![CDATA[2016-02-23 12:35:34]]></name>
    <trkseg>
      <trkpt lat="44.59372" lon="-0.28257">
        <ele>36.19</ele>
        <time>2016-02-23T07:57:40Z</time>
      </trkpt>
      <trkpt lat="44.59375" lon="-0.28258">
        <ele>42.44</ele>
        <time>2016-02-23T07:57:48Z</time>
      </trkpt>
      <trkpt lat="44.59375" lon="-0.28258">
        <ele>42.44</ele>
        <time>2016-02-23T07:57:49Z</time>
      </trkpt>
      <trkpt lat="44.59375" lon="-0.28258">
        <ele>45.8</ele>
        <time>2016-02-23T07:57:51Z</time>
      </trkpt>
      <trkpt lat="44.59375" lon="-0.28258">
        <ele>48.68</ele>
        <time>2016-02-23T07:57:53Z</time>
      </trkpt>
      <trkpt lat="44.59375" lon="-0.2826">
        <ele>53.01</ele>
        <time>2016-02-23T07:57:56Z</time>
      </trkpt>
      <trkpt lat="44.59375" lon="-0.2826">
        <ele>53.01</ele>
        <time>2016-02-23T07:57:57Z</time>
      </trkpt>
      <trkpt lat="44.59374" lon="-0.2826">
        <ele>56.86</ele>
        <time>2016-02-23T07:58:00Z</time>
      </trkpt>
      <trkpt lat="44.59374" lon="-0.28259">
        <ele>60.22</ele>
        <time>2016-02-23T07:58:03Z</time>
      </trkpt>
      <trkpt lat="44.59374" lon="-0.28257">
        <ele>63.58</ele>
        <time>2016-02-23T07:58:06Z</time>
      </trkpt>
      <trkpt lat="44.59373" lon="-0.28256">
        <ele>66.95</ele>
        <time>2016-02-23T07:58:10Z</time>
      </trkpt>
      <trkpt lat="44.59372" lon="-0.28255">
        <ele>69.83</ele>
        <time>2016-02-23T07:58:14Z</time>
      </trkpt>
      <trkpt lat="44.59372" lon="-0.28255">
        <ele>71.27</ele>
        <time>2016-02-23T07:58:16Z</time>
      </trkpt>
      <trkpt lat="44.59372" lon="-0.28254">
        <ele>72.24</ele>
        <time>2016-02-23T07:58:19Z</time>
      </trkpt>
      <trkpt lat="44.59372" lon="-0.28253">
        <ele>75.6</ele>
        <time>2016-02-23T07:58:23Z</time>
      </trkpt>
      <trkpt lat="44.59374" lon="-0.28264">
        <ele>78.97</ele>
        <time>2016-02-23T07:58:35Z</time>
      </trkpt>
      <trkpt lat="44.59378" lon="-0.28264">
        <ele>80.89</ele>
        <time>2016-02-23T07:58:48Z</time>
      </trkpt>
      <trkpt lat="44.59381" lon="-0.28262">
        <ele>82.33</ele>
        <time>2016-02-23T07:58:51Z</time>
      </trkpt>
      <trkpt lat="44.59383" lon="-0.2826">
        <ele>82.33</ele>
        <time>2016-02-23T07:59:14Z</time>
      </trkpt>
      <trkpt lat="44.59379" lon="-0.28266">
        <ele>82.33</ele>
        <time>2016-02-23T07:59:28Z</time>
      </trkpt>
      <trkpt lat="44.59379" lon="-0.28262">
        <ele>82.81</ele>
        <time>2016-02-23T07:59:42Z</time>
      </trkpt>
      <trkpt lat="44.59372" lon="-0.28257">
        <ele>81.37</ele>
        <time>2016-02-23T07:59:55Z</time>
      </trkpt>
      <trkpt lat="44.59371" lon="-0.28252">
        <ele>81.37</ele>
        <time>2016-02-23T08:00:08Z</time>
      </trkpt>
      <trkpt lat="44.59372" lon="-0.28255">
        <ele>81.85</ele>
        <time>2016-02-23T08:00:21Z</time>
      </trkpt>
      <trkpt lat="44.59377" lon="-0.2826">
        <ele>81.85</ele>
        <time>2016-02-23T08:00:37Z</time>
      </trkpt>
      <trkpt lat="44.59373" lon="-0.28258">
        <ele>81.85</ele>
        <time>2016-02-23T08:00:52Z</time>
      </trkpt>
      <trkpt lat="44.59373" lon="-0.28255">
        <ele>82.81</ele>
        <time>2016-02-23T08:01:04Z</time>
      </trkpt>
      <trkpt lat="44.59375" lon="-0.28256">
        <ele>81.37</ele>
        <time>2016-02-23T08:01:10Z</time>
      </trkpt>
      <trkpt lat="44.59373" lon="-0.28261">
        <ele>81.37</ele>
        <time>2016-02-23T08:01:22Z</time>
      </trkpt>
      <trkpt lat="44.59371" lon="-0.28268">
        <ele>80.41</ele>
        <time>2016-02-23T08:01:34Z</time>
      </trkpt>
      <trkpt lat="44.59369" lon="-0.28272">
        <ele>81.85</ele>
        <time>2016-02-23T08:01:38Z</time>
      </trkpt>
      <trkpt lat="44.59367" lon="-0.28283">
        <ele>81.85</ele>
        <time>2016-02-23T08:01:48Z</time>
      </trkpt>
      <trkpt lat="44.59365" lon="-0.28287">
        <ele>80.41</ele>
        <time>2016-02-23T08:01:54Z</time>
      </trkpt>
      <trkpt lat="44.59357" lon="-0.28286">
        <ele>81.85</ele>
        <time>2016-02-23T08:02:01Z</time>
      </trkpt>
      <trkpt lat="44.59356" lon="-0.28301">
        <ele>82.33</ele>
        <time>2016-02-23T08:02:18Z</time>
      </trkpt>
      <trkpt lat="44.59354" lon="-0.28319">
        <ele>81.37</ele>
        <time>2016-02-23T08:02:28Z</time>
      </trkpt>
      <trkpt lat="44.59365" lon="-0.28314">
        <ele>81.37</ele>
        <time>2016-02-23T08:02:50Z</time>
      </trkpt>
      <trkpt lat="44.59365" lon="-0.28317">
        <ele>80.89</ele>
        <time>2016-02-23T08:03:11Z</time>
      </trkpt>
      <trkpt lat="44.59369" lon="-0.28302">
        <ele>80.89</ele>
        <time>2016-02-23T08:03:31Z</time>
      </trkpt>
      <trkpt lat="44.59362" lon="-0.283">
        <ele>80.89</ele>
        <time>2016-02-23T08:03:51Z</time>
      </trkpt>
      <trkpt lat="44.59361" lon="-0.28293">
        <ele>80.89</ele>
        <time>2016-02-23T08:04:10Z</time>
      </trkpt>
      <trkpt lat="44.59365" lon="-0.28299">
        <ele>80.89</ele>
        <time>2016-02-23T08:04:27Z</time>
      </trkpt>
      <trkpt lat="44.59368" lon="-0.2828">
        <ele>80.89</ele>
        <time>2016-02-23T08:04:51Z</time>
      </trkpt>
      <trkpt lat="44.59359" lon="-0.28287">
        <ele>80.41</ele>
        <time>2016-02-23T08:05:10Z</time>
      </trkpt>
      <trkpt lat="44.59362" lon="-0.283">
        <ele>80.41</ele>
        <time>2016-02-23T08:05:28Z</time>
      </trkpt>
      <trkpt lat="44.59351" lon="-0.28308">
        <ele>80.41</ele>
        <time>2016-02-23T08:05:44Z</time>
      </trkpt>
      <trkpt lat="44.59351" lon="-0.28291">
        <ele>80.41</ele>
        <time>2016-02-23T08:05:59Z</time>
      </trkpt>
      <trkpt lat="44.59354" lon="-0.28286">
        <ele>80.41</ele>
        <time>2016-02-23T08:06:17Z</time>
      </trkpt>
      <trkpt lat="44.59367" lon="-0.28286">
        <ele>80.41</ele>
        <time>2016-02-23T08:06:29Z</time>
      </trkpt>
      <trkpt lat="44.59378" lon="-0.28262">
        <ele>80.89</ele>
        <time>2016-02-23T08:06:44Z</time>
      </trkpt>
      <trkpt lat="44.59376" lon="-0.28293">
        <ele>80.41</ele>
        <time>2016-02-23T08:06:57Z</time>
      </trkpt>
      <trkpt lat="44.59375" lon="-0.28292">
        <ele>80.89</ele>
        <time>2016-02-23T08:07:15Z</time>
      </trkpt>
      <trkpt lat="44.59371" lon="-0.28284">
        <ele>80.89</ele>
        <time>2016-02-23T08:07:34Z</time>
      </trkpt>
      <trkpt lat="44.59364" lon="-0.28283">
        <ele>80.89</ele>
        <time>2016-02-23T08:07:49Z</time>
      </trkpt>
      <trkpt lat="44.5937" lon="-0.28268">
        <ele>80.41</ele>
        <time>2016-02-23T08:08:00Z</time>
      </trkpt>
      <trkpt lat="44.59364" lon="-0.28247">
        <ele>80.41</ele>
        <time>2016-02-23T08:08:15Z</time>
      </trkpt>
      <trkpt lat="44.59366" lon="-0.28224">
        <ele>80.41</ele>
        <time>2016-02-23T08:08:28Z</time>
      </trkpt>
      <trkpt lat="44.59367" lon="-0.28203">
        <ele>80.41</ele>
        <time>2016-02-23T08:08:41Z</time>
      </trkpt>
      <trkpt lat="44.59366" lon="-0.28199">
        <ele>80.41</ele>
        <time>2016-02-23T08:08:44Z</time>
      </trkpt>
      <trkpt lat="44.59359" lon="-0.28176">
        <ele>80.41</ele>
        <time>2016-02-23T08:09:00Z</time>
      </trkpt>
      <trkpt lat="44.59347" lon="-0.2815">
        <ele>79.93</ele>
        <time>2016-02-23T08:09:17Z</time>
      </trkpt>
      <trkpt lat="44.59338" lon="-0.28133">
        <ele>79.93</ele>
        <time>2016-02-23T08:09:31Z</time>
      </trkpt>
      <trkpt lat="44.59335" lon="-0.28131">
        <ele>79.93</ele>
        <time>2016-02-23T08:09:33Z</time>
      </trkpt>
      <trkpt lat="44.59322" lon="-0.28108">
        <ele>79.93</ele>
        <time>2016-02-23T08:09:48Z</time>
      </trkpt>
      <trkpt lat="44.59313" lon="-0.28088">
        <ele>79.45</ele>
        <time>2016-02-23T08:10:02Z</time>
      </trkpt>
      <trkpt lat="44.59306" lon="-0.28069">
        <ele>80.89</ele>
        <time>2016-02-23T08:10:15Z</time>
      </trkpt>
      <trkpt lat="44.59299" lon="-0.28051">
        <ele>80.89</ele>
        <time>2016-02-23T08:10:28Z</time>
      </trkpt>
      <trkpt lat="44.59291" lon="-0.28028">
        <ele>80.89</ele>
        <time>2016-02-23T08:10:43Z</time>
      </trkpt>
      <trkpt lat="44.59285" lon="-0.28006">
        <ele>80.89</ele>
        <time>2016-02-23T08:10:57Z</time>
      </trkpt>
      <trkpt lat="44.59279" lon="-0.27989">
        <ele>80.89</ele>
        <time>2016-02-23T08:11:08Z</time>
      </trkpt>
      <trkpt lat="44.59279" lon="-0.27987">
        <ele>80.89</ele>
        <time>2016-02-23T08:11:21Z</time>
      </trkpt>
      <trkpt lat="44.59275" lon="-0.27979">
        <ele>80.89</ele>
        <time>2016-02-23T08:11:32Z</time>
      </trkpt>
      <trkpt lat="44.5927" lon="-0.27969">
        <ele>80.89</ele>
        <time>2016-02-23T08:11:45Z</time>
      </trkpt>
      <trkpt lat="44.59263" lon="-0.27953">
        <ele>81.37</ele>
        <time>2016-02-23T08:11:58Z</time>
      </trkpt>
      <trkpt lat="44.59254" lon="-0.27926">
        <ele>81.85</ele>
        <time>2016-02-23T08:12:14Z</time>
      </trkpt>
      <trkpt lat="44.59244" lon="-0.27903">
        <ele>82.33</ele>
        <time>2016-02-23T08:12:29Z</time>
      </trkpt>
      <trkpt lat="44.59237" lon="-0.27878">
        <ele>82.33</ele>
        <time>2016-02-23T08:12:46Z</time>
      </trkpt>
      <trkpt lat="44.59225" lon="-0.27848">
        <ele>83.29</ele>
        <time>2016-02-23T08:13:05Z</time>
      </trkpt>
      <trkpt lat="44.59213" lon="-0.27821">
        <ele>84.25</ele>
        <time>2016-02-23T08:13:22Z</time>
      </trkpt>
      <trkpt lat="44.59204" lon="-0.27801">
        <ele>84.73</ele>
        <time>2016-02-23T08:13:36Z</time>
      </trkpt>
      <trkpt lat="44.59194" lon="-0.27778">
        <ele>84.73</ele>
        <time>2016-02-23T08:13:51Z</time>
      </trkpt>
      <trkpt lat="44.59184" lon="-0.27758">
        <ele>83.29</ele>
        <time>2016-02-23T08:14:05Z</time>
      </trkpt>
      <trkpt lat="44.59173" lon="-0.27737">
        <ele>82.81</ele>
        <time>2016-02-23T08:14:20Z</time>
      </trkpt>
      <trkpt lat="44.59162" lon="-0.27716">
        <ele>81.37</ele>
        <time>2016-02-23T08:14:34Z</time>
      </trkpt>
      <trkpt lat="44.59153" lon="-0.27695">
        <ele>80.89</ele>
        <time>2016-02-23T08:14:48Z</time>
      </trkpt>
      <trkpt lat="44.59145" lon="-0.27673">
        <ele>78.97</ele>
        <time>2016-02-23T08:15:02Z</time>
      </trkpt>
      <trkpt lat="44.59137" lon="-0.2765">
        <ele>77.52</ele>
        <time>2016-02-23T08:15:17Z</time>
      </trkpt>
      <trkpt lat="44.59137" lon="-0.27624">
        <ele>76.08</ele>
        <time>2016-02-23T08:15:33Z</time>
      </trkpt>
      <trkpt lat="44.59141" lon="-0.27613">
        <ele>75.6</ele>
        <time>2016-02-23T08:15:40Z</time>
      </trkpt>
      <trkpt lat="44.59153" lon="-0.27589">
        <ele>73.2</ele>
        <time>2016-02-23T08:15:58Z</time>
      </trkpt>
      <trkpt lat="44.59162" lon="-0.27564">
        <ele>72.24</ele>
        <time>2016-02-23T08:16:14Z</time>
      </trkpt>
      <trkpt lat="44.59163" lon="-0.2754">
        <ele>70.79</ele>
        <time>2016-02-23T08:16:28Z</time>
      </trkpt>
      <trkpt lat="44.59159" lon="-0.27517">
        <ele>68.87</ele>
        <time>2016-02-23T08:16:43Z</time>
      </trkpt>
      <trkpt lat="44.59154" lon="-0.27493">
        <ele>67.91</ele>
        <time>2016-02-23T08:16:58Z</time>
      </trkpt>
      <trkpt lat="44.59154" lon="-0.27467">
        <ele>66.95</ele>
        <time>2016-02-23T08:17:12Z</time>
      </trkpt>
      <trkpt lat="44.59155" lon="-0.27447">
        <ele>65.51</ele>
        <time>2016-02-23T08:17:25Z</time>
      </trkpt>
      <trkpt lat="44.59149" lon="-0.27427">
        <ele>64.07</ele>
        <time>2016-02-23T08:17:38Z</time>
      </trkpt>
      <trkpt lat="44.59144" lon="-0.27419">
        <ele>63.58</ele>
        <time>2016-02-23T08:17:50Z</time>
      </trkpt>
      <trkpt lat="44.59139" lon="-0.27409">
        <ele>63.58</ele>
        <time>2016-02-23T08:17:59Z</time>
      </trkpt>
      <trkpt lat="44.59137" lon="-0.27405">
        <ele>63.58</ele>
        <time>2016-02-23T08:18:02Z</time>
      </trkpt>
      <trkpt lat="44.5912" lon="-0.2739">
        <ele>65.51</ele>
        <time>2016-02-23T08:18:17Z</time>
      </trkpt>
      <trkpt lat="44.59108" lon="-0.27374">
        <ele>67.91</ele>
        <time>2016-02-23T08:18:31Z</time>
      </trkpt>
      <trkpt lat="44.59106" lon="-0.27366">
        <ele>68.87</ele>
        <time>2016-02-23T08:18:42Z</time>
      </trkpt>
      <trkpt lat="44.59109" lon="-0.27364">
        <ele>69.35</ele>
        <time>2016-02-23T08:18:47Z</time>
      </trkpt>
      <trkpt lat="44.59111" lon="-0.27363">
        <ele>69.35</ele>
        <time>2016-02-23T08:18:49Z</time>
      </trkpt>
      <trkpt lat="44.59118" lon="-0.27359">
        <ele>69.83</ele>
        <time>2016-02-23T08:18:57Z</time>
      </trkpt>
      <trkpt lat="44.59134" lon="-0.27345">
        <ele>71.27</ele>
        <time>2016-02-23T08:19:10Z</time>
      </trkpt>
      <trkpt lat="44.59148" lon="-0.2733">
        <ele>72.72</ele>
        <time>2016-02-23T08:19:23Z</time>
      </trkpt>
      <trkpt lat="44.59157" lon="-0.27318">
        <ele>74.16</ele>
        <time>2016-02-23T08:19:35Z</time>
      </trkpt>
      <trkpt lat="44.59165" lon="-0.27308">
        <ele>74.64</ele>
        <time>2016-02-23T08:19:43Z</time>
      </trkpt>
      <trkpt lat="44.59178" lon="-0.27292">
        <ele>76.56</ele>
        <time>2016-02-23T08:19:57Z</time>
      </trkpt>
      <trkpt lat="44.59186" lon="-0.27283">
        <ele>77.52</ele>
        <time>2016-02-23T08:20:06Z</time>
      </trkpt>
      <trkpt lat="44.5919" lon="-0.27278">
        <ele>78</ele>
        <time>2016-02-23T08:20:10Z</time>
      </trkpt>
      <trkpt lat="44.59203" lon="-0.27264">
        <ele>80.89</ele>
        <time>2016-02-23T08:20:24Z</time>
      </trkpt>
      <trkpt lat="44.59215" lon="-0.27256">
        <ele>82.33</ele>
        <time>2016-02-23T08:20:35Z</time>
      </trkpt>
      <trkpt lat="44.59228" lon="-0.2725">
        <ele>84.25</ele>
        <time>2016-02-23T08:20:47Z</time>
      </trkpt>
      <trkpt lat="44.59238" lon="-0.27243">
        <ele>86.18</ele>
        <time>2016-02-23T08:20:57Z</time>
      </trkpt>
      <trkpt lat="44.59251" lon="-0.27233">
        <ele>87.62</ele>
        <time>2016-02-23T08:21:09Z</time>
      </trkpt>
      <trkpt lat="44.59264" lon="-0.27222">
        <ele>89.54</ele>
        <time>2016-02-23T08:21:22Z</time>
      </trkpt>
      <trkpt lat="44.5927" lon="-0.27218">
        <ele>90.02</ele>
        <time>2016-02-23T08:21:27Z</time>
      </trkpt>
      <trkpt lat="44.59283" lon="-0.27206">
        <ele>91.94</ele>
        <time>2016-02-23T08:21:40Z</time>
      </trkpt>
      <trkpt lat="44.59292" lon="-0.27195">
        <ele>93.39</ele>
        <time>2016-02-23T08:21:52Z</time>
      </trkpt>
      <trkpt lat="44.59291" lon="-0.27193">
        <ele>94.35</ele>
        <time>2016-02-23T08:22:05Z</time>
      </trkpt>
      <trkpt lat="44.59291" lon="-0.27192">
        <ele>94.35</ele>
        <time>2016-02-23T08:22:25Z</time>
      </trkpt>
      <trkpt lat="44.59292" lon="-0.27193">
        <ele>93.39</ele>
        <time>2016-02-23T08:22:42Z</time>
      </trkpt>
      <trkpt lat="44.59292" lon="-0.27195">
        <ele>93.39</ele>
        <time>2016-02-23T08:22:57Z</time>
      </trkpt>
      <trkpt lat="44.59289" lon="-0.27186">
        <ele>93.39</ele>
        <time>2016-02-23T08:23:07Z</time>
      </trkpt>
      <trkpt lat="44.59283" lon="-0.2717">
        <ele>93.39</ele>
        <time>2016-02-23T08:23:20Z</time>
      </trkpt>
      <trkpt lat="44.59283" lon="-0.27167">
        <ele>93.39</ele>
        <time>2016-02-23T08:23:22Z</time>
      </trkpt>
      <trkpt lat="44.59279" lon="-0.2715">
        <ele>93.39</ele>
        <time>2016-02-23T08:23:35Z</time>
      </trkpt>
      <trkpt lat="44.59275" lon="-0.27133">
        <ele>93.39</ele>
        <time>2016-02-23T08:23:47Z</time>
      </trkpt>
      <trkpt lat="44.59274" lon="-0.27126">
        <ele>94.83</ele>
        <time>2016-02-23T08:23:52Z</time>
      </trkpt>
      <trkpt lat="44.5927" lon="-0.27106">
        <ele>95.79</ele>
        <time>2016-02-23T08:24:06Z</time>
      </trkpt>
      <trkpt lat="44.59263" lon="-0.27084">
        <ele>94.83</ele>
        <time>2016-02-23T08:24:20Z</time>
      </trkpt>
      <trkpt lat="44.59254" lon="-0.27064">
        <ele>93.87</ele>
        <time>2016-02-23T08:24:34Z</time>
      </trkpt>
      <trkpt lat="44.5924" lon="-0.27051">
        <ele>93.39</ele>
        <time>2016-02-23T08:24:49Z</time>
      </trkpt>
      <trkpt lat="44.59236" lon="-0.27046">
        <ele>92.9</ele>
        <time>2016-02-23T08:25:00Z</time>
      </trkpt>
      <trkpt lat="44.59234" lon="-0.27048">
        <ele>92.9</ele>
        <time>2016-02-23T08:25:10Z</time>
      </trkpt>
      <trkpt lat="44.59233" lon="-0.27047">
        <ele>92.9</ele>
        <time>2016-02-23T08:25:26Z</time>
      </trkpt>
      <trkpt lat="44.5923" lon="-0.27048">
        <ele>92.9</ele>
        <time>2016-02-23T08:25:40Z</time>
      </trkpt>
      <trkpt lat="44.5922" lon="-0.27042">
        <ele>92.42</ele>
        <time>2016-02-23T08:25:52Z</time>
      </trkpt>
      <trkpt lat="44.59216" lon="-0.27039">
        <ele>92.42</ele>
        <time>2016-02-23T08:26:03Z</time>
      </trkpt>
      <trkpt lat="44.59216" lon="-0.27038">
        <ele>92.42</ele>
        <time>2016-02-23T08:26:22Z</time>
      </trkpt>
      <trkpt lat="44.59216" lon="-0.27039">
        <ele>92.9</ele>
        <time>2016-02-23T08:26:30Z</time>
      </trkpt>
      <trkpt lat="44.59217" lon="-0.27037">
        <ele>92.9</ele>
        <time>2016-02-23T08:26:45Z</time>
      </trkpt>
      <trkpt lat="44.59217" lon="-0.27038">
        <ele>92.9</ele>
        <time>2016-02-23T08:27:03Z</time>
      </trkpt>
      <trkpt lat="44.59217" lon="-0.27037">
        <ele>92.9</ele>
        <time>2016-02-23T08:27:21Z</time>
      </trkpt>
      <trkpt lat="44.5922" lon="-0.27035">
        <ele>92.9</ele>
        <time>2016-02-23T08:27:32Z</time>
      </trkpt>
      <trkpt lat="44.5922" lon="-0.2704">
        <ele>92.9</ele>
        <time>2016-02-23T08:27:42Z</time>
      </trkpt>
      <trkpt lat="44.59219" lon="-0.2704">
        <ele>91.46</ele>
        <time>2016-02-23T08:27:47Z</time>
      </trkpt>
      <trkpt lat="44.59218" lon="-0.27041">
        <ele>94.35</ele>
        <time>2016-02-23T08:27:50Z</time>
      </trkpt>
      <trkpt lat="44.59219" lon="-0.27041">
        <ele>93.39</ele>
        <time>2016-02-23T08:28:03Z</time>
      </trkpt>
      <trkpt lat="44.59219" lon="-0.27035">
        <ele>93.39</ele>
        <time>2016-02-23T08:28:16Z</time>
      </trkpt>
      <trkpt lat="44.59217" lon="-0.27031">
        <ele>93.39</ele>
        <time>2016-02-23T08:28:27Z</time>
      </trkpt>
      <trkpt lat="44.59214" lon="-0.27029">
        <ele>93.39</ele>
        <time>2016-02-23T08:28:40Z</time>
      </trkpt>
      <trkpt lat="44.59212" lon="-0.27027">
        <ele>93.39</ele>
        <time>2016-02-23T08:28:45Z</time>
      </trkpt>
      <trkpt lat="44.59211" lon="-0.27025">
        <ele>92.42</ele>
        <time>2016-02-23T08:28:47Z</time>
      </trkpt>
      <trkpt lat="44.59209" lon="-0.27024">
        <ele>92.42</ele>
        <time>2016-02-23T08:28:49Z</time>
      </trkpt>
      <trkpt lat="44.59192" lon="-0.27008">
        <ele>91.94</ele>
        <time>2016-02-23T08:29:05Z</time>
      </trkpt>
      <trkpt lat="44.59183" lon="-0.26999">
        <ele>91.94</ele>
        <time>2016-02-23T08:29:15Z</time>
      </trkpt>
      <trkpt lat="44.59173" lon="-0.26993">
        <ele>91.46</ele>
        <time>2016-02-23T08:29:28Z</time>
      </trkpt>
      <trkpt lat="44.59172" lon="-0.26992">
        <ele>91.46</ele>
        <time>2016-02-23T08:29:38Z</time>
      </trkpt>
      <trkpt lat="44.5916" lon="-0.26986">
        <ele>91.46</ele>
        <time>2016-02-23T08:29:50Z</time>
      </trkpt>
      <trkpt lat="44.59148" lon="-0.26981">
        <ele>90.98</ele>
        <time>2016-02-23T08:30:03Z</time>
      </trkpt>
      <trkpt lat="44.59134" lon="-0.26974">
        <ele>90.5</ele>
        <time>2016-02-23T08:30:16Z</time>
      </trkpt>
      <trkpt lat="44.59122" lon="-0.26968">
        <ele>90.5</ele>
        <time>2016-02-23T08:30:27Z</time>
      </trkpt>
      <trkpt lat="44.59109" lon="-0.26963">
        <ele>89.54</ele>
        <time>2016-02-23T08:30:38Z</time>
      </trkpt>
      <trkpt lat="44.59092" lon="-0.26957">
        <ele>89.06</ele>
        <time>2016-02-23T08:30:52Z</time>
      </trkpt>
      <trkpt lat="44.59078" lon="-0.26951">
        <ele>88.1</ele>
        <time>2016-02-23T08:31:04Z</time>
      </trkpt>
      <trkpt lat="44.59063" lon="-0.26945">
        <ele>87.62</ele>
        <time>2016-02-23T08:31:17Z</time>
      </trkpt>
      <trkpt lat="44.59048" lon="-0.26937">
        <ele>86.66</ele>
        <time>2016-02-23T08:31:30Z</time>
      </trkpt>
      <trkpt lat="44.59032" lon="-0.26929">
        <ele>85.69</ele>
        <time>2016-02-23T08:31:44Z</time>
      </trkpt>
      <trkpt lat="44.59017" lon="-0.26924">
        <ele>84.25</ele>
        <time>2016-02-23T08:31:57Z</time>
      </trkpt>
      <trkpt lat="44.59003" lon="-0.26921">
        <ele>82.81</ele>
        <time>2016-02-23T08:32:09Z</time>
      </trkpt>
      <trkpt lat="44.58994" lon="-0.26918">
        <ele>82.81</ele>
        <time>2016-02-23T08:32:18Z</time>
      </trkpt>
      <trkpt lat="44.5899" lon="-0.26917">
        <ele>82.81</ele>
        <time>2016-02-23T08:32:22Z</time>
      </trkpt>
      <trkpt lat="44.58983" lon="-0.26909">
        <ele>81.85</ele>
        <time>2016-02-23T08:32:31Z</time>
      </trkpt>
      <trkpt lat="44.58975" lon="-0.26899">
        <ele>80.41</ele>
        <time>2016-02-23T08:32:44Z</time>
      </trkpt>
      <trkpt lat="44.58971" lon="-0.26899">
        <ele>80.41</ele>
        <time>2016-02-23T08:32:48Z</time>
      </trkpt>
      <trkpt lat="44.58958" lon="-0.26895">
        <ele>78</ele>
        <time>2016-02-23T08:33:02Z</time>
      </trkpt>
      <trkpt lat="44.58953" lon="-0.26895">
        <ele>77.04</ele>
        <time>2016-02-23T08:33:12Z</time>
      </trkpt>
      <trkpt lat="44.58944" lon="-0.269">
        <ele>74.16</ele>
        <time>2016-02-23T08:33:24Z</time>
      </trkpt>
      <trkpt lat="44.58938" lon="-0.26915">
        <ele>72.24</ele>
        <time>2016-02-23T08:33:38Z</time>
      </trkpt>
      <trkpt lat="44.58938" lon="-0.26928">
        <ele>69.83</ele>
        <time>2016-02-23T08:33:50Z</time>
      </trkpt>
      <trkpt lat="44.58935" lon="-0.26931">
        <ele>68.39</ele>
        <time>2016-02-23T08:34:02Z</time>
      </trkpt>
      <trkpt lat="44.58943" lon="-0.26914">
        <ele>65.99</ele>
        <time>2016-02-23T08:34:18Z</time>
      </trkpt>
      <trkpt lat="44.58943" lon="-0.26901">
        <ele>65.99</ele>
        <time>2016-02-23T08:34:29Z</time>
      </trkpt>
      <trkpt lat="44.5894" lon="-0.26877">
        <ele>64.55</ele>
        <time>2016-02-23T08:34:46Z</time>
      </trkpt>
      <trkpt lat="44.5894" lon="-0.26862">
        <ele>63.1</ele>
        <time>2016-02-23T08:34:59Z</time>
      </trkpt>
      <trkpt lat="44.58938" lon="-0.26837">
        <ele>61.18</ele>
        <time>2016-02-23T08:35:17Z</time>
      </trkpt>
      <trkpt lat="44.58933" lon="-0.26813">
        <ele>60.22</ele>
        <time>2016-02-23T08:35:32Z</time>
      </trkpt>
      <trkpt lat="44.58928" lon="-0.26791">
        <ele>58.3</ele>
        <time>2016-02-23T08:35:49Z</time>
      </trkpt>
      <trkpt lat="44.58917" lon="-0.26782">
        <ele>55.89</ele>
        <time>2016-02-23T08:36:03Z</time>
      </trkpt>
      <trkpt lat="44.58903" lon="-0.26785">
        <ele>53.49</ele>
        <time>2016-02-23T08:36:16Z</time>
      </trkpt>
      <trkpt lat="44.58897" lon="-0.26783">
        <ele>51.57</ele>
        <time>2016-02-23T08:36:29Z</time>
      </trkpt>
      <trkpt lat="44.58887" lon="-0.26782">
        <ele>50.13</ele>
        <time>2016-02-23T08:36:41Z</time>
      </trkpt>
      <trkpt lat="44.58875" lon="-0.26779">
        <ele>48.2</ele>
        <time>2016-02-23T08:36:54Z</time>
      </trkpt>
      <trkpt lat="44.58866" lon="-0.26774">
        <ele>47.24</ele>
        <time>2016-02-23T08:37:04Z</time>
      </trkpt>
      <trkpt lat="44.58852" lon="-0.26776">
        <ele>44.36</ele>
        <time>2016-02-23T08:37:19Z</time>
      </trkpt>
      <trkpt lat="44.58842" lon="-0.26776">
        <ele>42.92</ele>
        <time>2016-02-23T08:37:32Z</time>
      </trkpt>
      <trkpt lat="44.58837" lon="-0.26774">
        <ele>41.95</ele>
        <time>2016-02-23T08:37:49Z</time>
      </trkpt>
      <trkpt lat="44.58823" lon="-0.26776">
        <ele>39.55</ele>
        <time>2016-02-23T08:38:04Z</time>
      </trkpt>
      <trkpt lat="44.58809" lon="-0.26776">
        <ele>37.15</ele>
        <time>2016-02-23T08:38:18Z</time>
      </trkpt>
      <trkpt lat="44.58797" lon="-0.26774">
        <ele>35.71</ele>
        <time>2016-02-23T08:38:31Z</time>
      </trkpt>
      <trkpt lat="44.58791" lon="-0.26771">
        <ele>34.26</ele>
        <time>2016-02-23T08:38:42Z</time>
      </trkpt>
      <trkpt lat="44.58792" lon="-0.26768">
        <ele>34.26</ele>
        <time>2016-02-23T08:39:00Z</time>
      </trkpt>
      <trkpt lat="44.58788" lon="-0.26768">
        <ele>33.3</ele>
        <time>2016-02-23T08:39:13Z</time>
      </trkpt>
      <trkpt lat="44.58779" lon="-0.26767">
        <ele>31.86</ele>
        <time>2016-02-23T08:39:27Z</time>
      </trkpt>
      <trkpt lat="44.58772" lon="-0.26771">
        <ele>31.38</ele>
        <time>2016-02-23T08:39:39Z</time>
      </trkpt>
      <trkpt lat="44.58771" lon="-0.2677">
        <ele>31.38</ele>
        <time>2016-02-23T08:39:52Z</time>
      </trkpt>
      <trkpt lat="44.58768" lon="-0.2677">
        <ele>30.42</ele>
        <time>2016-02-23T08:40:06Z</time>
      </trkpt>
      <trkpt lat="44.58767" lon="-0.26771">
        <ele>30.42</ele>
        <time>2016-02-23T08:40:24Z</time>
      </trkpt>
      <trkpt lat="44.58766" lon="-0.26769">
        <ele>30.42</ele>
        <time>2016-02-23T08:40:44Z</time>
      </trkpt>
      <trkpt lat="44.58767" lon="-0.26769">
        <ele>30.42</ele>
        <time>2016-02-23T08:41:03Z</time>
      </trkpt>
      <trkpt lat="44.58766" lon="-0.26767">
        <ele>30.42</ele>
        <time>2016-02-23T08:41:24Z</time>
      </trkpt>
      <trkpt lat="44.58767" lon="-0.26772">
        <ele>30.42</ele>
        <time>2016-02-23T08:41:49Z</time>
      </trkpt>
      <trkpt lat="44.58768" lon="-0.26771">
        <ele>30.42</ele>
        <time>2016-02-23T08:42:04Z</time>
      </trkpt>
      <trkpt lat="44.58763" lon="-0.2677">
        <ele>30.42</ele>
        <time>2016-02-23T08:42:16Z</time>
      </trkpt>
      <trkpt lat="44.58764" lon="-0.26767">
        <ele>30.42</ele>
        <time>2016-02-23T08:42:33Z</time>
      </trkpt>
      <trkpt lat="44.58763" lon="-0.26764">
        <ele>30.42</ele>
        <time>2016-02-23T08:42:56Z</time>
      </trkpt>
      <trkpt lat="44.58763" lon="-0.26765">
        <ele>30.42</ele>
        <time>2016-02-23T08:43:22Z</time>
      </trkpt>
      <trkpt lat="44.58764" lon="-0.26766">
        <ele>30.42</ele>
        <time>2016-02-23T08:43:49Z</time>
      </trkpt>
      <trkpt lat="44.58763" lon="-0.26768">
        <ele>30.42</ele>
        <time>2016-02-23T08:44:08Z</time>
      </trkpt>
      <trkpt lat="44.58765" lon="-0.26769">
        <ele>30.9</ele>
        <time>2016-02-23T08:44:27Z</time>
      </trkpt>
      <trkpt lat="44.58765" lon="-0.26769">
        <ele>30.9</ele>
        <time>2016-02-23T08:44:54Z</time>
      </trkpt>
      <trkpt lat="44.58763" lon="-0.26767">
        <ele>30.9</ele>
        <time>2016-02-23T08:45:15Z</time>
      </trkpt>
      <trkpt lat="44.58758" lon="-0.26765">
        <ele>29.94</ele>
        <time>2016-02-23T08:45:24Z</time>
      </trkpt>
      <trkpt lat="44.58747" lon="-0.26754">
        <ele>28.5</ele>
        <time>2016-02-23T08:45:39Z</time>
      </trkpt>
      <trkpt lat="44.58737" lon="-0.26732">
        <ele>26.57</ele>
        <time>2016-02-23T08:45:57Z</time>
      </trkpt>
      <trkpt lat="44.58728" lon="-0.26716">
        <ele>25.13</ele>
        <time>2016-02-23T08:46:11Z</time>
      </trkpt>
      <trkpt lat="44.58717" lon="-0.26704">
        <ele>23.21</ele>
        <time>2016-02-23T08:46:26Z</time>
      </trkpt>
      <trkpt lat="44.58705" lon="-0.26692">
        <ele>21.29</ele>
        <time>2016-02-23T08:46:39Z</time>
      </trkpt>
      <trkpt lat="44.58694" lon="-0.26682">
        <ele>19.36</ele>
        <time>2016-02-23T08:46:51Z</time>
      </trkpt>
      <trkpt lat="44.58682" lon="-0.2667">
        <ele>18.4</ele>
        <time>2016-02-23T08:47:04Z</time>
      </trkpt>
      <trkpt lat="44.58669" lon="-0.26659">
        <ele>16.48</ele>
        <time>2016-02-23T08:47:17Z</time>
      </trkpt>
      <trkpt lat="44.58659" lon="-0.26651">
        <ele>16</ele>
        <time>2016-02-23T08:47:28Z</time>
      </trkpt>
      <trkpt lat="44.58648" lon="-0.2664">
        <ele>14.56</ele>
        <time>2016-02-23T08:47:41Z</time>
      </trkpt>
      <trkpt lat="44.58635" lon="-0.26628">
        <ele>14.08</ele>
        <time>2016-02-23T08:47:54Z</time>
      </trkpt>
      <trkpt lat="44.58626" lon="-0.2662">
        <ele>13.6</ele>
        <time>2016-02-23T08:48:03Z</time>
      </trkpt>
      <trkpt lat="44.58625" lon="-0.26609">
        <ele>13.6</ele>
        <time>2016-02-23T08:48:16Z</time>
      </trkpt>
      <trkpt lat="44.58627" lon="-0.26599">
        <ele>13.6</ele>
        <time>2016-02-23T08:48:27Z</time>
      </trkpt>
      <trkpt lat="44.58631" lon="-0.26581">
        <ele>13.6</ele>
        <time>2016-02-23T08:48:41Z</time>
      </trkpt>
      <trkpt lat="44.58634" lon="-0.26563">
        <ele>14.56</ele>
        <time>2016-02-23T08:48:53Z</time>
      </trkpt>
      <trkpt lat="44.58637" lon="-0.26543">
        <ele>15.52</ele>
        <time>2016-02-23T08:49:06Z</time>
      </trkpt>
      <trkpt lat="44.58641" lon="-0.26527">
        <ele>15.52</ele>
        <time>2016-02-23T08:49:19Z</time>
      </trkpt>
      <trkpt lat="44.58647" lon="-0.26506">
        <ele>15.52</ele>
        <time>2016-02-23T08:49:34Z</time>
      </trkpt>
      <trkpt lat="44.58653" lon="-0.26482">
        <ele>15.52</ele>
        <time>2016-02-23T08:49:50Z</time>
      </trkpt>
      <trkpt lat="44.5866" lon="-0.26465">
        <ele>15.52</ele>
        <time>2016-02-23T08:50:03Z</time>
      </trkpt>
      <trkpt lat="44.58668" lon="-0.26447">
        <ele>15.52</ele>
        <time>2016-02-23T08:50:17Z</time>
      </trkpt>
      <trkpt lat="44.58676" lon="-0.26427">
        <ele>16</ele>
        <time>2016-02-23T08:50:31Z</time>
      </trkpt>
      <trkpt lat="44.58682" lon="-0.26405">
        <ele>16.48</ele>
        <time>2016-02-23T08:50:45Z</time>
      </trkpt>
      <trkpt lat="44.58686" lon="-0.26383">
        <ele>16</ele>
        <time>2016-02-23T08:51:00Z</time>
      </trkpt>
      <trkpt lat="44.58689" lon="-0.26362">
        <ele>16.48</ele>
        <time>2016-02-23T08:51:14Z</time>
      </trkpt>
      <trkpt lat="44.58694" lon="-0.26347">
        <ele>16.48</ele>
        <time>2016-02-23T08:51:29Z</time>
      </trkpt>
      <trkpt lat="44.587" lon="-0.26326">
        <ele>17.44</ele>
        <time>2016-02-23T08:51:43Z</time>
      </trkpt>
      <trkpt lat="44.58709" lon="-0.2631">
        <ele>17.44</ele>
        <time>2016-02-23T08:51:57Z</time>
      </trkpt>
      <trkpt lat="44.58718" lon="-0.26301">
        <ele>18.88</ele>
        <time>2016-02-23T08:52:11Z</time>
      </trkpt>
      <trkpt lat="44.58726" lon="-0.26293">
        <ele>19.36</ele>
        <time>2016-02-23T08:52:23Z</time>
      </trkpt>
      <trkpt lat="44.58741" lon="-0.26276">
        <ele>21.29</ele>
        <time>2016-02-23T08:52:41Z</time>
      </trkpt>
      <trkpt lat="44.58751" lon="-0.26267">
        <ele>22.73</ele>
        <time>2016-02-23T08:52:56Z</time>
      </trkpt>
      <trkpt lat="44.58768" lon="-0.26252">
        <ele>23.21</ele>
        <time>2016-02-23T08:53:11Z</time>
      </trkpt>
      <trkpt lat="44.58777" lon="-0.26244">
        <ele>24.17</ele>
        <time>2016-02-23T08:53:24Z</time>
      </trkpt>
      <trkpt lat="44.58781" lon="-0.26235">
        <ele>24.65</ele>
        <time>2016-02-23T08:53:37Z</time>
      </trkpt>
      <trkpt lat="44.58791" lon="-0.26222">
        <ele>26.09</ele>
        <time>2016-02-23T08:53:50Z</time>
      </trkpt>
      <trkpt lat="44.58802" lon="-0.26204">
        <ele>26.09</ele>
        <time>2016-02-23T08:54:03Z</time>
      </trkpt>
      <trkpt lat="44.58809" lon="-0.26189">
        <ele>26.09</ele>
        <time>2016-02-23T08:54:16Z</time>
      </trkpt>
      <trkpt lat="44.58814" lon="-0.26178">
        <ele>25.13</ele>
        <time>2016-02-23T08:54:28Z</time>
      </trkpt>
      <trkpt lat="44.58821" lon="-0.26165">
        <ele>24.65</ele>
        <time>2016-02-23T08:54:41Z</time>
      </trkpt>
      <trkpt lat="44.58828" lon="-0.2615">
        <ele>24.65</ele>
        <time>2016-02-23T08:54:54Z</time>
      </trkpt>
      <trkpt lat="44.58836" lon="-0.26131">
        <ele>23.69</ele>
        <time>2016-02-23T08:55:09Z</time>
      </trkpt>
      <trkpt lat="44.58842" lon="-0.26113">
        <ele>23.21</ele>
        <time>2016-02-23T08:55:23Z</time>
      </trkpt>
      <trkpt lat="44.58844" lon="-0.26096">
        <ele>23.21</ele>
        <time>2016-02-23T08:55:35Z</time>
      </trkpt>
      <trkpt lat="44.58848" lon="-0.26078">
        <ele>23.21</ele>
        <time>2016-02-23T08:55:48Z</time>
      </trkpt>
      <trkpt lat="44.5885" lon="-0.26066">
        <ele>23.21</ele>
        <time>2016-02-23T08:55:58Z</time>
      </trkpt>
      <trkpt lat="44.58853" lon="-0.26048">
        <ele>23.21</ele>
        <time>2016-02-23T08:56:11Z</time>
      </trkpt>
      <trkpt lat="44.58856" lon="-0.26032">
        <ele>23.69</ele>
        <time>2016-02-23T08:56:22Z</time>
      </trkpt>
      <trkpt lat="44.58859" lon="-0.26012">
        <ele>24.65</ele>
        <time>2016-02-23T08:56:35Z</time>
      </trkpt>
      <trkpt lat="44.58862" lon="-0.26001">
        <ele>24.65</ele>
        <time>2016-02-23T08:56:44Z</time>
      </trkpt>
      <trkpt lat="44.58871" lon="-0.25982">
        <ele>24.65</ele>
        <time>2016-02-23T08:57:01Z</time>
      </trkpt>
      <trkpt lat="44.58877" lon="-0.25968">
        <ele>25.13</ele>
        <time>2016-02-23T08:57:13Z</time>
      </trkpt>
      <trkpt lat="44.58885" lon="-0.25952">
        <ele>26.57</ele>
        <time>2016-02-23T08:57:25Z</time>
      </trkpt>
      <trkpt lat="44.58891" lon="-0.25939">
        <ele>27.05</ele>
        <time>2016-02-23T08:57:36Z</time>
      </trkpt>
      <trkpt lat="44.58897" lon="-0.25924">
        <ele>28.02</ele>
        <time>2016-02-23T08:57:49Z</time>
      </trkpt>
      <trkpt lat="44.589" lon="-0.25906">
        <ele>28.02</ele>
        <time>2016-02-23T08:58:01Z</time>
      </trkpt>
      <trkpt lat="44.589" lon="-0.25898">
        <ele>28.02</ele>
        <time>2016-02-23T08:58:06Z</time>
      </trkpt>
      <trkpt lat="44.58899" lon="-0.2589">
        <ele>28.02</ele>
        <time>2016-02-23T08:58:10Z</time>
      </trkpt>
      <trkpt lat="44.589" lon="-0.25869">
        <ele>26.57</ele>
        <time>2016-02-23T08:58:23Z</time>
      </trkpt>
      <trkpt lat="44.58902" lon="-0.25858">
        <ele>26.57</ele>
        <time>2016-02-23T08:58:33Z</time>
      </trkpt>
      <trkpt lat="44.58907" lon="-0.25842">
        <ele>26.09</ele>
        <time>2016-02-23T08:58:45Z</time>
      </trkpt>
      <trkpt lat="44.58911" lon="-0.25827">
        <ele>25.61</ele>
        <time>2016-02-23T08:58:57Z</time>
      </trkpt>
      <trkpt lat="44.58918" lon="-0.25817">
        <ele>25.13</ele>
        <time>2016-02-23T08:59:10Z</time>
      </trkpt>
      <trkpt lat="44.58916" lon="-0.25817">
        <ele>25.13</ele>
        <time>2016-02-23T08:59:28Z</time>
      </trkpt>
      <trkpt lat="44.58917" lon="-0.25811">
        <ele>25.13</ele>
        <time>2016-02-23T08:59:39Z</time>
      </trkpt>
      <trkpt lat="44.58914" lon="-0.25811">
        <ele>25.13</ele>
        <time>2016-02-23T08:59:50Z</time>
      </trkpt>
      <trkpt lat="44.58911" lon="-0.25816">
        <ele>25.13</ele>
        <time>2016-02-23T09:00:00Z</time>
      </trkpt>
      <trkpt lat="44.58912" lon="-0.25814">
        <ele>25.13</ele>
        <time>2016-02-23T09:00:18Z</time>
      </trkpt>
      <trkpt lat="44.58913" lon="-0.25812">
        <ele>25.13</ele>
        <time>2016-02-23T09:00:34Z</time>
      </trkpt>
      <trkpt lat="44.58913" lon="-0.25812">
        <ele>25.13</ele>
        <time>2016-02-23T09:01:00Z</time>
      </trkpt>
      <trkpt lat="44.58912" lon="-0.25809">
        <ele>25.13</ele>
        <time>2016-02-23T09:01:17Z</time>
      </trkpt>
      <trkpt lat="44.58915" lon="-0.25806">
        <ele>25.61</ele>
        <time>2016-02-23T09:01:28Z</time>
      </trkpt>
      <trkpt lat="44.58917" lon="-0.25793">
        <ele>25.61</ele>
        <time>2016-02-23T09:01:41Z</time>
      </trkpt>
      <trkpt lat="44.5892" lon="-0.25777">
        <ele>25.61</ele>
        <time>2016-02-23T09:01:52Z</time>
      </trkpt>
      <trkpt lat="44.58921" lon="-0.25774">
        <ele>25.13</ele>
        <time>2016-02-23T09:01:54Z</time>
      </trkpt>
      <trkpt lat="44.58924" lon="-0.25756">
        <ele>25.13</ele>
        <time>2016-02-23T09:02:06Z</time>
      </trkpt>
      <trkpt lat="44.58926" lon="-0.25737">
        <ele>25.13</ele>
        <time>2016-02-23T09:02:19Z</time>
      </trkpt>
      <trkpt lat="44.58928" lon="-0.25719">
        <ele>25.13</ele>
        <time>2016-02-23T09:02:29Z</time>
      </trkpt>
      <trkpt lat="44.58932" lon="-0.25703">
        <ele>25.13</ele>
        <time>2016-02-23T09:02:40Z</time>
      </trkpt>
      <trkpt lat="44.58927" lon="-0.25693">
        <ele>24.65</ele>
        <time>2016-02-23T09:02:48Z</time>
      </trkpt>
      <trkpt lat="44.58924" lon="-0.25694">
        <ele>24.65</ele>
        <time>2016-02-23T09:03:01Z</time>
      </trkpt>
      <trkpt lat="44.58923" lon="-0.25695">
        <ele>24.65</ele>
        <time>2016-02-23T09:03:11Z</time>
      </trkpt>
      <trkpt lat="44.58919" lon="-0.25711">
        <ele>24.65</ele>
        <time>2016-02-23T09:03:25Z</time>
      </trkpt>
      <trkpt lat="44.58917" lon="-0.25725">
        <ele>25.13</ele>
        <time>2016-02-23T09:03:37Z</time>
      </trkpt>
      <trkpt lat="44.58916" lon="-0.25734">
        <ele>25.13</ele>
        <time>2016-02-23T09:03:50Z</time>
      </trkpt>
      <trkpt lat="44.58913" lon="-0.2574">
        <ele>25.13</ele>
        <time>2016-02-23T09:04:20Z</time>
      </trkpt>
      <trkpt lat="44.58913" lon="-0.25737">
        <ele>25.13</ele>
        <time>2016-02-23T09:04:43Z</time>
      </trkpt>
      <trkpt lat="44.58912" lon="-0.25739">
        <ele>25.13</ele>
        <time>2016-02-23T09:05:07Z</time>
      </trkpt>
      <trkpt lat="44.58913" lon="-0.25737">
        <ele>25.13</ele>
        <time>2016-02-23T09:05:30Z</time>
      </trkpt>
      <trkpt lat="44.58915" lon="-0.25738">
        <ele>25.61</ele>
        <time>2016-02-23T09:05:53Z</time>
      </trkpt>
      <trkpt lat="44.58917" lon="-0.25727">
        <ele>25.61</ele>
        <time>2016-02-23T09:06:05Z</time>
      </trkpt>
      <trkpt lat="44.58922" lon="-0.2571">
        <ele>25.61</ele>
        <time>2016-02-23T09:06:16Z</time>
      </trkpt>
      <trkpt lat="44.58926" lon="-0.25699">
        <ele>25.61</ele>
        <time>2016-02-23T09:06:25Z</time>
      </trkpt>
      <trkpt lat="44.58926" lon="-0.25696">
        <ele>25.61</ele>
        <time>2016-02-23T09:06:39Z</time>
      </trkpt>
      <trkpt lat="44.58926" lon="-0.25697">
        <ele>25.61</ele>
        <time>2016-02-23T09:06:54Z</time>
      </trkpt>
      <trkpt lat="44.58924" lon="-0.25697">
        <ele>25.61</ele>
        <time>2016-02-23T09:07:10Z</time>
      </trkpt>
      <trkpt lat="44.58922" lon="-0.25696">
        <ele>25.61</ele>
        <time>2016-02-23T09:07:26Z</time>
      </trkpt>
      <trkpt lat="44.58923" lon="-0.25692">
        <ele>25.61</ele>
        <time>2016-02-23T09:07:44Z</time>
      </trkpt>
      <trkpt lat="44.58929" lon="-0.25677">
        <ele>25.61</ele>
        <time>2016-02-23T09:07:57Z</time>
      </trkpt>
      <trkpt lat="44.58933" lon="-0.25665">
        <ele>25.61</ele>
        <time>2016-02-23T09:08:05Z</time>
      </trkpt>
      <trkpt lat="44.58942" lon="-0.25647">
        <ele>27.05</ele>
        <time>2016-02-23T09:08:18Z</time>
      </trkpt>
      <trkpt lat="44.58945" lon="-0.25641">
        <ele>27.53</ele>
        <time>2016-02-23T09:08:23Z</time>
      </trkpt>
      <trkpt lat="44.58947" lon="-0.25636">
        <ele>28.02</ele>
        <time>2016-02-23T09:08:26Z</time>
      </trkpt>
      <trkpt lat="44.58954" lon="-0.25621">
        <ele>28.98</ele>
        <time>2016-02-23T09:08:37Z</time>
      </trkpt>
      <trkpt lat="44.5896" lon="-0.25604">
        <ele>29.94</ele>
        <time>2016-02-23T09:08:48Z</time>
      </trkpt>
      <trkpt lat="44.58965" lon="-0.25592">
        <ele>30.42</ele>
        <time>2016-02-23T09:08:57Z</time>
      </trkpt>
      <trkpt lat="44.58973" lon="-0.25578">
        <ele>31.86</ele>
        <time>2016-02-23T09:09:08Z</time>
      </trkpt>
      <trkpt lat="44.58977" lon="-0.25564">
        <ele>32.34</ele>
        <time>2016-02-23T09:09:18Z</time>
      </trkpt>
      <trkpt lat="44.58987" lon="-0.25549">
        <ele>33.3</ele>
        <time>2016-02-23T09:09:30Z</time>
      </trkpt>
      <trkpt lat="44.58994" lon="-0.25536">
        <ele>34.26</ele>
        <time>2016-02-23T09:09:39Z</time>
      </trkpt>
      <trkpt lat="44.59" lon="-0.25523">
        <ele>34.74</ele>
        <time>2016-02-23T09:09:48Z</time>
      </trkpt>
      <trkpt lat="44.5901" lon="-0.25508">
        <ele>35.23</ele>
        <time>2016-02-23T09:10:00Z</time>
      </trkpt>
      <trkpt lat="44.59013" lon="-0.25503">
        <ele>35.71</ele>
        <time>2016-02-23T09:10:11Z</time>
      </trkpt>
      <trkpt lat="44.59017" lon="-0.25505">
        <ele>35.71</ele>
        <time>2016-02-23T09:10:22Z</time>
      </trkpt>
      <trkpt lat="44.59023" lon="-0.25509">
        <ele>35.71</ele>
        <time>2016-02-23T09:10:34Z</time>
      </trkpt>
      <trkpt lat="44.59026" lon="-0.25511">
        <ele>35.71</ele>
        <time>2016-02-23T09:10:39Z</time>
      </trkpt>
      <trkpt lat="44.59029" lon="-0.25513">
        <ele>35.71</ele>
        <time>2016-02-23T09:10:43Z</time>
      </trkpt>
      <trkpt lat="44.5904" lon="-0.2552">
        <ele>36.19</ele>
        <time>2016-02-23T09:10:55Z</time>
      </trkpt>
      <trkpt lat="44.59052" lon="-0.25527">
        <ele>36.67</ele>
        <time>2016-02-23T09:11:07Z</time>
      </trkpt>
      <trkpt lat="44.59056" lon="-0.25529">
        <ele>37.15</ele>
        <time>2016-02-23T09:11:11Z</time>
      </trkpt>
      <trkpt lat="44.5907" lon="-0.25536">
        <ele>37.63</ele>
        <time>2016-02-23T09:11:24Z</time>
      </trkpt>
      <trkpt lat="44.5908" lon="-0.25541">
        <ele>38.11</ele>
        <time>2016-02-23T09:11:34Z</time>
      </trkpt>
      <trkpt lat="44.59092" lon="-0.25546">
        <ele>38.59</ele>
        <time>2016-02-23T09:11:44Z</time>
      </trkpt>
      <trkpt lat="44.59104" lon="-0.25553">
        <ele>39.55</ele>
        <time>2016-02-23T09:11:56Z</time>
      </trkpt>
      <trkpt lat="44.59118" lon="-0.25561">
        <ele>40.99</ele>
        <time>2016-02-23T09:12:09Z</time>
      </trkpt>
      <trkpt lat="44.5913" lon="-0.25567">
        <ele>41.47</ele>
        <time>2016-02-23T09:12:19Z</time>
      </trkpt>
      <trkpt lat="44.59141" lon="-0.25572">
        <ele>42.44</ele>
        <time>2016-02-23T09:12:28Z</time>
      </trkpt>
      <trkpt lat="44.59153" lon="-0.25579">
        <ele>44.36</ele>
        <time>2016-02-23T09:12:39Z</time>
      </trkpt>
      <trkpt lat="44.5916" lon="-0.25581">
        <ele>45.32</ele>
        <time>2016-02-23T09:12:49Z</time>
      </trkpt>
      <trkpt lat="44.59164" lon="-0.2558">
        <ele>45.32</ele>
        <time>2016-02-23T09:13:01Z</time>
      </trkpt>
      <trkpt lat="44.59165" lon="-0.25579">
        <ele>45.8</ele>
        <time>2016-02-23T09:13:11Z</time>
      </trkpt>
      <trkpt lat="44.59169" lon="-0.25581">
        <ele>45.8</ele>
        <time>2016-02-23T09:13:22Z</time>
      </trkpt>
      <trkpt lat="44.59172" lon="-0.25583">
        <ele>46.28</ele>
        <time>2016-02-23T09:13:27Z</time>
      </trkpt>
      <trkpt lat="44.59174" lon="-0.25584">
        <ele>46.28</ele>
        <time>2016-02-23T09:13:29Z</time>
      </trkpt>
      <trkpt lat="44.59184" lon="-0.2559">
        <ele>47.72</ele>
        <time>2016-02-23T09:13:40Z</time>
      </trkpt>
      <trkpt lat="44.59189" lon="-0.25592">
        <ele>48.2</ele>
        <time>2016-02-23T09:13:45Z</time>
      </trkpt>
      <trkpt lat="44.59201" lon="-0.25597">
        <ele>49.65</ele>
        <time>2016-02-23T09:13:58Z</time>
      </trkpt>
      <trkpt lat="44.59214" lon="-0.25604">
        <ele>51.09</ele>
        <time>2016-02-23T09:14:11Z</time>
      </trkpt>
      <trkpt lat="44.59226" lon="-0.2561">
        <ele>52.53</ele>
        <time>2016-02-23T09:14:24Z</time>
      </trkpt>
      <trkpt lat="44.59238" lon="-0.25615">
        <ele>53.97</ele>
        <time>2016-02-23T09:14:36Z</time>
      </trkpt>
      <trkpt lat="44.59251" lon="-0.25621">
        <ele>55.41</ele>
        <time>2016-02-23T09:14:49Z</time>
      </trkpt>
      <trkpt lat="44.59264" lon="-0.25626">
        <ele>56.86</ele>
        <time>2016-02-23T09:15:01Z</time>
      </trkpt>
      <trkpt lat="44.59276" lon="-0.2563">
        <ele>57.82</ele>
        <time>2016-02-23T09:15:13Z</time>
      </trkpt>
      <trkpt lat="44.59284" lon="-0.25635">
        <ele>59.26</ele>
        <time>2016-02-23T09:15:24Z</time>
      </trkpt>
      <trkpt lat="44.59288" lon="-0.25635">
        <ele>59.26</ele>
        <time>2016-02-23T09:15:28Z</time>
      </trkpt>
      <trkpt lat="44.59292" lon="-0.25635">
        <ele>59.74</ele>
        <time>2016-02-23T09:15:34Z</time>
      </trkpt>
      <trkpt lat="44.59294" lon="-0.25636">
        <ele>59.74</ele>
        <time>2016-02-23T09:15:36Z</time>
      </trkpt>
      <trkpt lat="44.59308" lon="-0.25641">
        <ele>61.66</ele>
        <time>2016-02-23T09:15:50Z</time>
      </trkpt>
      <trkpt lat="44.59325" lon="-0.25642">
        <ele>63.1</ele>
        <time>2016-02-23T09:16:06Z</time>
      </trkpt>
      <trkpt lat="44.59339" lon="-0.25644">
        <ele>64.55</ele>
        <time>2016-02-23T09:16:19Z</time>
      </trkpt>
      <trkpt lat="44.59352" lon="-0.25645">
        <ele>65.03</ele>
        <time>2016-02-23T09:16:31Z</time>
      </trkpt>
      <trkpt lat="44.59367" lon="-0.25645">
        <ele>65.99</ele>
        <time>2016-02-23T09:16:44Z</time>
      </trkpt>
      <trkpt lat="44.59379" lon="-0.25645">
        <ele>65.99</ele>
        <time>2016-02-23T09:16:55Z</time>
      </trkpt>
      <trkpt lat="44.59393" lon="-0.25645">
        <ele>66.47</ele>
        <time>2016-02-23T09:17:07Z</time>
      </trkpt>
      <trkpt lat="44.59408" lon="-0.25646">
        <ele>66.47</ele>
        <time>2016-02-23T09:17:19Z</time>
      </trkpt>
      <trkpt lat="44.59419" lon="-0.25649">
        <ele>66.47</ele>
        <time>2016-02-23T09:17:28Z</time>
      </trkpt>
      <trkpt lat="44.59431" lon="-0.25654">
        <ele>66.47</ele>
        <time>2016-02-23T09:17:38Z</time>
      </trkpt>
      <trkpt lat="44.59443" lon="-0.25664">
        <ele>66.95</ele>
        <time>2016-02-23T09:17:50Z</time>
      </trkpt>
      <trkpt lat="44.59446" lon="-0.25668">
        <ele>66.95</ele>
        <time>2016-02-23T09:17:53Z</time>
      </trkpt>
      <trkpt lat="44.59452" lon="-0.25685">
        <ele>67.43</ele>
        <time>2016-02-23T09:18:05Z</time>
      </trkpt>
      <trkpt lat="44.59454" lon="-0.25698">
        <ele>68.39</ele>
        <time>2016-02-23T09:18:13Z</time>
      </trkpt>
      <trkpt lat="44.59459" lon="-0.2572">
        <ele>68.87</ele>
        <time>2016-02-23T09:18:27Z</time>
      </trkpt>
      <trkpt lat="44.59462" lon="-0.25734">
        <ele>69.83</ele>
        <time>2016-02-23T09:18:37Z</time>
      </trkpt>
      <trkpt lat="44.59462" lon="-0.2575">
        <ele>69.83</ele>
        <time>2016-02-23T09:18:47Z</time>
      </trkpt>
      <trkpt lat="44.59463" lon="-0.25756">
        <ele>70.31</ele>
        <time>2016-02-23T09:18:51Z</time>
      </trkpt>
      <trkpt lat="44.59466" lon="-0.25774">
        <ele>71.27</ele>
        <time>2016-02-23T09:19:03Z</time>
      </trkpt>
      <trkpt lat="44.59468" lon="-0.25771">
        <ele>71.27</ele>
        <time>2016-02-23T09:19:16Z</time>
      </trkpt>
      <trkpt lat="44.5947" lon="-0.25768">
        <ele>71.27</ele>
        <time>2016-02-23T09:19:30Z</time>
      </trkpt>
      <trkpt lat="44.59471" lon="-0.25766">
        <ele>71.27</ele>
        <time>2016-02-23T09:19:53Z</time>
      </trkpt>
      <trkpt lat="44.59469" lon="-0.25769">
        <ele>71.27</ele>
        <time>2016-02-23T09:20:05Z</time>
      </trkpt>
      <trkpt lat="44.59468" lon="-0.2577">
        <ele>71.76</ele>
        <time>2016-02-23T09:20:28Z</time>
      </trkpt>
      <trkpt lat="44.59467" lon="-0.25768">
        <ele>71.76</ele>
        <time>2016-02-23T09:20:46Z</time>
      </trkpt>
      <trkpt lat="44.59473" lon="-0.25763">
        <ele>70.31</ele>
        <time>2016-02-23T09:20:57Z</time>
      </trkpt>
      <trkpt lat="44.59479" lon="-0.2575">
        <ele>68.87</ele>
        <time>2016-02-23T09:21:09Z</time>
      </trkpt>
      <trkpt lat="44.59484" lon="-0.25738">
        <ele>67.91</ele>
        <time>2016-02-23T09:21:19Z</time>
      </trkpt>
      <trkpt lat="44.59491" lon="-0.25728">
        <ele>65.99</ele>
        <time>2016-02-23T09:21:29Z</time>
      </trkpt>
      <trkpt lat="44.59497" lon="-0.25714">
        <ele>64.55</ele>
        <time>2016-02-23T09:21:43Z</time>
      </trkpt>
      <trkpt lat="44.59502" lon="-0.25699">
        <ele>62.14</ele>
        <time>2016-02-23T09:21:57Z</time>
      </trkpt>
      <trkpt lat="44.59506" lon="-0.25687">
        <ele>60.22</ele>
        <time>2016-02-23T09:22:09Z</time>
      </trkpt>
      <trkpt lat="44.59516" lon="-0.25675">
        <ele>59.26</ele>
        <time>2016-02-23T09:22:22Z</time>
      </trkpt>
      <trkpt lat="44.59521" lon="-0.25664">
        <ele>56.86</ele>
        <time>2016-02-23T09:22:33Z</time>
      </trkpt>
      <trkpt lat="44.59525" lon="-0.25654">
        <ele>55.41</ele>
        <time>2016-02-23T09:22:41Z</time>
      </trkpt>
      <trkpt lat="44.59528" lon="-0.25638">
        <ele>54.45</ele>
        <time>2016-02-23T09:22:53Z</time>
      </trkpt>
      <trkpt lat="44.59535" lon="-0.25628">
        <ele>51.57</ele>
        <time>2016-02-23T09:23:05Z</time>
      </trkpt>
      <trkpt lat="44.59543" lon="-0.25617">
        <ele>49.65</ele>
        <time>2016-02-23T09:23:17Z</time>
      </trkpt>
      <trkpt lat="44.59552" lon="-0.25607">
        <ele>47.72</ele>
        <time>2016-02-23T09:23:29Z</time>
      </trkpt>
      <trkpt lat="44.5956" lon="-0.25596">
        <ele>46.76</ele>
        <time>2016-02-23T09:23:40Z</time>
      </trkpt>
      <trkpt lat="44.59562" lon="-0.25592">
        <ele>46.76</ele>
        <time>2016-02-23T09:23:43Z</time>
      </trkpt>
      <trkpt lat="44.59567" lon="-0.2559">
        <ele>45.8</ele>
        <time>2016-02-23T09:23:49Z</time>
      </trkpt>
      <trkpt lat="44.59569" lon="-0.25591">
        <ele>45.8</ele>
        <time>2016-02-23T09:23:52Z</time>
      </trkpt>
      <trkpt lat="44.59572" lon="-0.25592">
        <ele>45.32</ele>
        <time>2016-02-23T09:23:55Z</time>
      </trkpt>
      <trkpt lat="44.5958" lon="-0.2559">
        <ele>43.88</ele>
        <time>2016-02-23T09:24:04Z</time>
      </trkpt>
      <trkpt lat="44.59589" lon="-0.25579">
        <ele>42.44</ele>
        <time>2016-02-23T09:24:16Z</time>
      </trkpt>
      <trkpt lat="44.59598" lon="-0.25568">
        <ele>40.99</ele>
        <time>2016-02-23T09:24:27Z</time>
      </trkpt>
      <trkpt lat="44.59604" lon="-0.25561">
        <ele>40.51</ele>
        <time>2016-02-23T09:24:35Z</time>
      </trkpt>
      <trkpt lat="44.59614" lon="-0.2556">
        <ele>39.07</ele>
        <time>2016-02-23T09:24:48Z</time>
      </trkpt>
      <trkpt lat="44.59618" lon="-0.25558">
        <ele>39.07</ele>
        <time>2016-02-23T09:24:52Z</time>
      </trkpt>
      <trkpt lat="44.59621" lon="-0.25558">
        <ele>38.59</ele>
        <time>2016-02-23T09:24:56Z</time>
      </trkpt>
      <trkpt lat="44.59631" lon="-0.25557">
        <ele>38.11</ele>
        <time>2016-02-23T09:25:08Z</time>
      </trkpt>
      <trkpt lat="44.59637" lon="-0.25548">
        <ele>37.15</ele>
        <time>2016-02-23T09:25:17Z</time>
      </trkpt>
      <trkpt lat="44.59646" lon="-0.25535">
        <ele>36.19</ele>
        <time>2016-02-23T09:25:29Z</time>
      </trkpt>
      <trkpt lat="44.59653" lon="-0.25526">
        <ele>34.74</ele>
        <time>2016-02-23T09:25:39Z</time>
      </trkpt>
      <trkpt lat="44.59661" lon="-0.25515">
        <ele>33.78</ele>
        <time>2016-02-23T09:25:50Z</time>
      </trkpt>
      <trkpt lat="44.5967" lon="-0.25504">
        <ele>32.34</ele>
        <time>2016-02-23T09:26:01Z</time>
      </trkpt>
      <trkpt lat="44.5968" lon="-0.25491">
        <ele>30.9</ele>
        <time>2016-02-23T09:26:14Z</time>
      </trkpt>
      <trkpt lat="44.59691" lon="-0.25474">
        <ele>29.94</ele>
        <time>2016-02-23T09:26:29Z</time>
      </trkpt>
      <trkpt lat="44.59696" lon="-0.25462">
        <ele>28.5</ele>
        <time>2016-02-23T09:26:41Z</time>
      </trkpt>
      <trkpt lat="44.59693" lon="-0.25459">
        <ele>28.5</ele>
        <time>2016-02-23T09:26:57Z</time>
      </trkpt>
      <trkpt lat="44.59693" lon="-0.25457">
        <ele>28.02</ele>
        <time>2016-02-23T09:27:12Z</time>
      </trkpt>
      <trkpt lat="44.59692" lon="-0.25458">
        <ele>28.5</ele>
        <time>2016-02-23T09:27:23Z</time>
      </trkpt>
      <trkpt lat="44.59695" lon="-0.25457">
        <ele>28.5</ele>
        <time>2016-02-23T09:27:36Z</time>
      </trkpt>
      <trkpt lat="44.59696" lon="-0.25453">
        <ele>28.5</ele>
        <time>2016-02-23T09:27:47Z</time>
      </trkpt>
      <trkpt lat="44.59702" lon="-0.2544">
        <ele>28.02</ele>
        <time>2016-02-23T09:27:59Z</time>
      </trkpt>
      <trkpt lat="44.59711" lon="-0.25427">
        <ele>26.09</ele>
        <time>2016-02-23T09:28:12Z</time>
      </trkpt>
      <trkpt lat="44.59719" lon="-0.25415">
        <ele>24.17</ele>
        <time>2016-02-23T09:28:25Z</time>
      </trkpt>
      <trkpt lat="44.59722" lon="-0.25403">
        <ele>22.25</ele>
        <time>2016-02-23T09:28:36Z</time>
      </trkpt>
      <trkpt lat="44.59725" lon="-0.25391">
        <ele>21.77</ele>
        <time>2016-02-23T09:28:47Z</time>
      </trkpt>
      <trkpt lat="44.59728" lon="-0.25376">
        <ele>21.77</ele>
        <time>2016-02-23T09:28:58Z</time>
      </trkpt>
      <trkpt lat="44.59727" lon="-0.25373">
        <ele>22.73</ele>
        <time>2016-02-23T09:29:00Z</time>
      </trkpt>
      <trkpt lat="44.59728" lon="-0.25369">
        <ele>23.21</ele>
        <time>2016-02-23T09:29:05Z</time>
      </trkpt>
      <trkpt lat="44.59726" lon="-0.25357">
        <ele>23.69</ele>
        <time>2016-02-23T09:29:14Z</time>
      </trkpt>
      <trkpt lat="44.5973" lon="-0.25353">
        <ele>24.17</ele>
        <time>2016-02-23T09:29:20Z</time>
      </trkpt>
      <trkpt lat="44.5974" lon="-0.25349">
        <ele>25.13</ele>
        <time>2016-02-23T09:29:32Z</time>
      </trkpt>
      <trkpt lat="44.59742" lon="-0.25349">
        <ele>25.13</ele>
        <time>2016-02-23T09:29:45Z</time>
      </trkpt>
      <trkpt lat="44.59749" lon="-0.25351">
        <ele>25.61</ele>
        <time>2016-02-23T09:29:54Z</time>
      </trkpt>
      <trkpt lat="44.59761" lon="-0.25353">
        <ele>26.09</ele>
        <time>2016-02-23T09:30:06Z</time>
      </trkpt>
      <trkpt lat="44.59774" lon="-0.25357">
        <ele>26.57</ele>
        <time>2016-02-23T09:30:18Z</time>
      </trkpt>
      <trkpt lat="44.59779" lon="-0.25361">
        <ele>27.05</ele>
        <time>2016-02-23T09:30:29Z</time>
      </trkpt>
      <trkpt lat="44.59788" lon="-0.25365">
        <ele>27.05</ele>
        <time>2016-02-23T09:30:39Z</time>
      </trkpt>
      <trkpt lat="44.59812" lon="-0.25375">
        <ele>27.53</ele>
        <time>2016-02-23T09:30:57Z</time>
      </trkpt>
      <trkpt lat="44.5983" lon="-0.25386">
        <ele>27.53</ele>
        <time>2016-02-23T09:31:13Z</time>
      </trkpt>
      <trkpt lat="44.59843" lon="-0.25395">
        <ele>27.53</ele>
        <time>2016-02-23T09:31:26Z</time>
      </trkpt>
      <trkpt lat="44.59854" lon="-0.25402">
        <ele>27.53</ele>
        <time>2016-02-23T09:31:38Z</time>
      </trkpt>
      <trkpt lat="44.59868" lon="-0.25408">
        <ele>28.02</ele>
        <time>2016-02-23T09:31:50Z</time>
      </trkpt>
      <trkpt lat="44.59884" lon="-0.25414">
        <ele>28.5</ele>
        <time>2016-02-23T09:32:05Z</time>
      </trkpt>
      <trkpt lat="44.59902" lon="-0.25418">
        <ele>29.46</ele>
        <time>2016-02-23T09:32:20Z</time>
      </trkpt>
      <trkpt lat="44.5992" lon="-0.25424">
        <ele>30.42</ele>
        <time>2016-02-23T09:32:35Z</time>
      </trkpt>
      <trkpt lat="44.59935" lon="-0.2543">
        <ele>30.42</ele>
        <time>2016-02-23T09:32:48Z</time>
      </trkpt>
      <trkpt lat="44.59952" lon="-0.25438">
        <ele>30.42</ele>
        <time>2016-02-23T09:33:02Z</time>
      </trkpt>
      <trkpt lat="44.59967" lon="-0.25447">
        <ele>30.9</ele>
        <time>2016-02-23T09:33:16Z</time>
      </trkpt>
      <trkpt lat="44.59981" lon="-0.25456">
        <ele>30.9</ele>
        <time>2016-02-23T09:33:28Z</time>
      </trkpt>
      <trkpt lat="44.59995" lon="-0.25465">
        <ele>30.9</ele>
        <time>2016-02-23T09:33:41Z</time>
      </trkpt>
      <trkpt lat="44.60002" lon="-0.25468">
        <ele>30.9</ele>
        <time>2016-02-23T09:33:50Z</time>
      </trkpt>
      <trkpt lat="44.60015" lon="-0.25475">
        <ele>30.9</ele>
        <time>2016-02-23T09:34:02Z</time>
      </trkpt>
      <trkpt lat="44.60017" lon="-0.25476">
        <ele>30.9</ele>
        <time>2016-02-23T09:34:04Z</time>
      </trkpt>
      <trkpt lat="44.60032" lon="-0.25483">
        <ele>30.9</ele>
        <time>2016-02-23T09:34:18Z</time>
      </trkpt>
      <trkpt lat="44.60049" lon="-0.25488">
        <ele>29.46</ele>
        <time>2016-02-23T09:34:32Z</time>
      </trkpt>
      <trkpt lat="44.60065" lon="-0.2549">
        <ele>29.94</ele>
        <time>2016-02-23T09:34:45Z</time>
      </trkpt>
      <trkpt lat="44.60083" lon="-0.25495">
        <ele>29.46</ele>
        <time>2016-02-23T09:35:00Z</time>
      </trkpt>
      <trkpt lat="44.60092" lon="-0.25499">
        <ele>29.46</ele>
        <time>2016-02-23T09:35:10Z</time>
      </trkpt>
      <trkpt lat="44.60101" lon="-0.25509">
        <ele>28.98</ele>
        <time>2016-02-23T09:35:21Z</time>
      </trkpt>
      <trkpt lat="44.60105" lon="-0.25517">
        <ele>28.02</ele>
        <time>2016-02-23T09:35:31Z</time>
      </trkpt>
      <trkpt lat="44.60105" lon="-0.25529">
        <ele>28.02</ele>
        <time>2016-02-23T09:35:58Z</time>
      </trkpt>
      <trkpt lat="44.60103" lon="-0.25529">
        <ele>28.02</ele>
        <time>2016-02-23T09:36:20Z</time>
      </trkpt>
      <trkpt lat="44.60104" lon="-0.25517">
        <ele>29.46</ele>
        <time>2016-02-23T09:36:29Z</time>
      </trkpt>
      <trkpt lat="44.60098" lon="-0.25509">
        <ele>29.46</ele>
        <time>2016-02-23T09:36:41Z</time>
      </trkpt>
      <trkpt lat="44.60097" lon="-0.25508">
        <ele>29.46</ele>
        <time>2016-02-23T09:36:57Z</time>
      </trkpt>
      <trkpt lat="44.60094" lon="-0.25505">
        <ele>29.94</ele>
        <time>2016-02-23T09:37:10Z</time>
      </trkpt>
      <trkpt lat="44.60097" lon="-0.255">
        <ele>29.94</ele>
        <time>2016-02-23T09:37:23Z</time>
      </trkpt>
      <trkpt lat="44.60099" lon="-0.25492">
        <ele>29.94</ele>
        <time>2016-02-23T09:37:35Z</time>
      </trkpt>
      <trkpt lat="44.60098" lon="-0.25492">
        <ele>30.42</ele>
        <time>2016-02-23T09:37:52Z</time>
      </trkpt>
      <trkpt lat="44.60099" lon="-0.25491">
        <ele>30.42</ele>
        <time>2016-02-23T09:38:14Z</time>
      </trkpt>
      <trkpt lat="44.60099" lon="-0.25498">
        <ele>29.46</ele>
        <time>2016-02-23T09:38:27Z</time>
      </trkpt>
      <trkpt lat="44.60099" lon="-0.25504">
        <ele>28.98</ele>
        <time>2016-02-23T09:38:40Z</time>
      </trkpt>
      <trkpt lat="44.60098" lon="-0.25507">
        <ele>28.98</ele>
        <time>2016-02-23T09:39:03Z</time>
      </trkpt>
      <trkpt lat="44.601" lon="-0.25508">
        <ele>29.94</ele>
        <time>2016-02-23T09:39:26Z</time>
      </trkpt>
      <trkpt lat="44.601" lon="-0.25505">
        <ele>29.94</ele>
        <time>2016-02-23T09:39:42Z</time>
      </trkpt>
      <trkpt lat="44.60098" lon="-0.25502">
        <ele>28.98</ele>
        <time>2016-02-23T09:39:56Z</time>
      </trkpt>
      <trkpt lat="44.601" lon="-0.25493">
        <ele>30.42</ele>
        <time>2016-02-23T09:40:06Z</time>
      </trkpt>
      <trkpt lat="44.60102" lon="-0.25486">
        <ele>31.38</ele>
        <time>2016-02-23T09:40:18Z</time>
      </trkpt>
      <trkpt lat="44.60103" lon="-0.25484">
        <ele>31.86</ele>
        <time>2016-02-23T09:40:32Z</time>
      </trkpt>
      <trkpt lat="44.60102" lon="-0.25485">
        <ele>31.86</ele>
        <time>2016-02-23T09:40:51Z</time>
      </trkpt>
      <trkpt lat="44.60104" lon="-0.25487">
        <ele>32.34</ele>
        <time>2016-02-23T09:41:15Z</time>
      </trkpt>
      <trkpt lat="44.60102" lon="-0.25481">
        <ele>32.34</ele>
        <time>2016-02-23T09:41:35Z</time>
      </trkpt>
      <trkpt lat="44.60104" lon="-0.2548">
        <ele>32.34</ele>
        <time>2016-02-23T09:41:54Z</time>
      </trkpt>
      <trkpt lat="44.60103" lon="-0.25482">
        <ele>32.34</ele>
        <time>2016-02-23T09:42:08Z</time>
      </trkpt>
      <trkpt lat="44.60104" lon="-0.25484">
        <ele>32.34</ele>
        <time>2016-02-23T09:42:25Z</time>
      </trkpt>
      <trkpt lat="44.60103" lon="-0.25485">
        <ele>32.34</ele>
        <time>2016-02-23T09:42:46Z</time>
      </trkpt>
      <trkpt lat="44.60105" lon="-0.25483">
        <ele>32.82</ele>
        <time>2016-02-23T09:43:08Z</time>
      </trkpt>
      <trkpt lat="44.60104" lon="-0.25485">
        <ele>32.82</ele>
        <time>2016-02-23T09:43:30Z</time>
      </trkpt>
      <trkpt lat="44.60104" lon="-0.25485">
        <ele>32.82</ele>
        <time>2016-02-23T09:43:44Z</time>
      </trkpt>
      <trkpt lat="44.60103" lon="-0.2548">
        <ele>32.82</ele>
        <time>2016-02-23T09:43:56Z</time>
      </trkpt>
      <trkpt lat="44.60102" lon="-0.2548">
        <ele>33.78</ele>
        <time>2016-02-23T09:44:14Z</time>
      </trkpt>
      <trkpt lat="44.60102" lon="-0.25483">
        <ele>32.34</ele>
        <time>2016-02-23T09:44:28Z</time>
      </trkpt>
      <trkpt lat="44.60102" lon="-0.25481">
        <ele>33.3</ele>
        <time>2016-02-23T09:44:47Z</time>
      </trkpt>
      <trkpt lat="44.60105" lon="-0.25479">
        <ele>33.3</ele>
        <time>2016-02-23T09:45:08Z</time>
      </trkpt>
      <trkpt lat="44.60105" lon="-0.2548">
        <ele>34.26</ele>
        <time>2016-02-23T09:45:25Z</time>
      </trkpt>
      <trkpt lat="44.60104" lon="-0.25483">
        <ele>33.3</ele>
        <time>2016-02-23T09:45:46Z</time>
      </trkpt>
      <trkpt lat="44.60102" lon="-0.25482">
        <ele>33.3</ele>
        <time>2016-02-23T09:46:06Z</time>
      </trkpt>
      <trkpt lat="44.60101" lon="-0.25482">
        <ele>33.3</ele>
        <time>2016-02-23T09:46:23Z</time>
      </trkpt>
      <trkpt lat="44.60101" lon="-0.25482">
        <ele>34.74</ele>
        <time>2016-02-23T09:46:30Z</time>
      </trkpt>
      <trkpt lat="44.601" lon="-0.25482">
        <ele>33.3</ele>
        <time>2016-02-23T09:46:43Z</time>
      </trkpt>
      <trkpt lat="44.60099" lon="-0.25491">
        <ele>32.82</ele>
        <time>2016-02-23T09:47:01Z</time>
      </trkpt>
      <trkpt lat="44.60101" lon="-0.25483">
        <ele>32.34</ele>
        <time>2016-02-23T09:47:15Z</time>
      </trkpt>
      <trkpt lat="44.60102" lon="-0.25486">
        <ele>32.34</ele>
        <time>2016-02-23T09:47:36Z</time>
      </trkpt>
      <trkpt lat="44.601" lon="-0.25486">
        <ele>32.34</ele>
        <time>2016-02-23T09:47:54Z</time>
      </trkpt>
      <trkpt lat="44.60098" lon="-0.25492">
        <ele>32.34</ele>
        <time>2016-02-23T09:48:11Z</time>
      </trkpt>
      <trkpt lat="44.60098" lon="-0.25492">
        <ele>32.34</ele>
        <time>2016-02-23T09:48:24Z</time>
      </trkpt>
      <trkpt lat="44.601" lon="-0.25494">
        <ele>31.86</ele>
        <time>2016-02-23T09:48:34Z</time>
      </trkpt>
      <trkpt lat="44.60102" lon="-0.25504">
        <ele>30.9</ele>
        <time>2016-02-23T09:48:46Z</time>
      </trkpt>
      <trkpt lat="44.60104" lon="-0.25511">
        <ele>30.9</ele>
        <time>2016-02-23T09:49:00Z</time>
      </trkpt>
      <trkpt lat="44.60112" lon="-0.25518">
        <ele>30.42</ele>
        <time>2016-02-23T09:49:11Z</time>
      </trkpt>
      <trkpt lat="44.60122" lon="-0.25525">
        <ele>29.94</ele>
        <time>2016-02-23T09:49:22Z</time>
      </trkpt>
      <trkpt lat="44.60132" lon="-0.25532">
        <ele>29.94</ele>
        <time>2016-02-23T09:49:34Z</time>
      </trkpt>
      <trkpt lat="44.60143" lon="-0.25539">
        <ele>29.94</ele>
        <time>2016-02-23T09:49:47Z</time>
      </trkpt>
      <trkpt lat="44.60148" lon="-0.25546">
        <ele>29.94</ele>
        <time>2016-02-23T09:49:59Z</time>
      </trkpt>
      <trkpt lat="44.60156" lon="-0.25553">
        <ele>29.94</ele>
        <time>2016-02-23T09:50:10Z</time>
      </trkpt>
      <trkpt lat="44.60159" lon="-0.25563">
        <ele>29.94</ele>
        <time>2016-02-23T09:50:21Z</time>
      </trkpt>
      <trkpt lat="44.60163" lon="-0.25575">
        <ele>29.94</ele>
        <time>2016-02-23T09:50:31Z</time>
      </trkpt>
      <trkpt lat="44.60166" lon="-0.25585">
        <ele>29.94</ele>
        <time>2016-02-23T09:50:41Z</time>
      </trkpt>
      <trkpt lat="44.60168" lon="-0.25594">
        <ele>29.94</ele>
        <time>2016-02-23T09:50:52Z</time>
      </trkpt>
      <trkpt lat="44.60171" lon="-0.25604">
        <ele>29.94</ele>
        <time>2016-02-23T09:51:01Z</time>
      </trkpt>
      <trkpt lat="44.60177" lon="-0.25618">
        <ele>29.94</ele>
        <time>2016-02-23T09:51:13Z</time>
      </trkpt>
      <trkpt lat="44.60181" lon="-0.25629">
        <ele>29.94</ele>
        <time>2016-02-23T09:51:23Z</time>
      </trkpt>
      <trkpt lat="44.60184" lon="-0.25646">
        <ele>29.94</ele>
        <time>2016-02-23T09:51:36Z</time>
      </trkpt>
      <trkpt lat="44.60186" lon="-0.25649">
        <ele>29.94</ele>
        <time>2016-02-23T09:51:39Z</time>
      </trkpt>
      <trkpt lat="44.60189" lon="-0.25662">
        <ele>31.38</ele>
        <time>2016-02-23T09:51:50Z</time>
      </trkpt>
      <trkpt lat="44.6019" lon="-0.25663">
        <ele>31.38</ele>
        <time>2016-02-23T09:51:51Z</time>
      </trkpt>
      <trkpt lat="44.6019" lon="-0.25666">
        <ele>31.38</ele>
        <time>2016-02-23T09:51:53Z</time>
      </trkpt>
      <trkpt lat="44.60194" lon="-0.25679">
        <ele>31.38</ele>
        <time>2016-02-23T09:52:03Z</time>
      </trkpt>
      <trkpt lat="44.602" lon="-0.25693">
        <ele>31.86</ele>
        <time>2016-02-23T09:52:14Z</time>
      </trkpt>
      <trkpt lat="44.60204" lon="-0.25707">
        <ele>32.34</ele>
        <time>2016-02-23T09:52:24Z</time>
      </trkpt>
      <trkpt lat="44.60207" lon="-0.25719">
        <ele>32.34</ele>
        <time>2016-02-23T09:52:34Z</time>
      </trkpt>
      <trkpt lat="44.60213" lon="-0.2573">
        <ele>32.82</ele>
        <time>2016-02-23T09:52:44Z</time>
      </trkpt>
      <trkpt lat="44.60219" lon="-0.25738">
        <ele>33.78</ele>
        <time>2016-02-23T09:52:54Z</time>
      </trkpt>
      <trkpt lat="44.60224" lon="-0.25748">
        <ele>35.23</ele>
        <time>2016-02-23T09:53:05Z</time>
      </trkpt>
      <trkpt lat="44.60233" lon="-0.25764">
        <ele>35.23</ele>
        <time>2016-02-23T09:53:23Z</time>
      </trkpt>
      <trkpt lat="44.60247" lon="-0.25782">
        <ele>34.74</ele>
        <time>2016-02-23T09:53:40Z</time>
      </trkpt>
      <trkpt lat="44.60276" lon="-0.25799">
        <ele>35.23</ele>
        <time>2016-02-23T09:53:59Z</time>
      </trkpt>
      <trkpt lat="44.60292" lon="-0.25817">
        <ele>35.23</ele>
        <time>2016-02-23T09:54:20Z</time>
      </trkpt>
      <trkpt lat="44.60304" lon="-0.25832">
        <ele>33.78</ele>
        <time>2016-02-23T09:54:39Z</time>
      </trkpt>
      <trkpt lat="44.60314" lon="-0.25848">
        <ele>33.78</ele>
        <time>2016-02-23T09:54:57Z</time>
      </trkpt>
      <trkpt lat="44.60328" lon="-0.25865">
        <ele>34.74</ele>
        <time>2016-02-23T09:55:15Z</time>
      </trkpt>
      <trkpt lat="44.60345" lon="-0.25879">
        <ele>34.74</ele>
        <time>2016-02-23T09:55:32Z</time>
      </trkpt>
      <trkpt lat="44.60363" lon="-0.25891">
        <ele>35.23</ele>
        <time>2016-02-23T09:55:49Z</time>
      </trkpt>
      <trkpt lat="44.60365" lon="-0.25887">
        <ele>35.23</ele>
        <time>2016-02-23T09:56:06Z</time>
      </trkpt>
      <trkpt lat="44.60363" lon="-0.25889">
        <ele>35.23</ele>
        <time>2016-02-23T09:56:24Z</time>
      </trkpt>
      <trkpt lat="44.60363" lon="-0.25887">
        <ele>35.23</ele>
        <time>2016-02-23T09:56:41Z</time>
      </trkpt>
      <trkpt lat="44.60366" lon="-0.2589">
        <ele>35.23</ele>
        <time>2016-02-23T09:56:55Z</time>
      </trkpt>
      <trkpt lat="44.60365" lon="-0.25891">
        <ele>35.23</ele>
        <time>2016-02-23T09:57:09Z</time>
      </trkpt>
      <trkpt lat="44.60366" lon="-0.2589">
        <ele>35.23</ele>
        <time>2016-02-23T09:57:27Z</time>
      </trkpt>
      <trkpt lat="44.60365" lon="-0.2589">
        <ele>35.23</ele>
        <time>2016-02-23T09:57:42Z</time>
      </trkpt>
      <trkpt lat="44.60365" lon="-0.2589">
        <ele>35.71</ele>
        <time>2016-02-23T09:57:53Z</time>
      </trkpt>
      <trkpt lat="44.60372" lon="-0.25895">
        <ele>35.71</ele>
        <time>2016-02-23T09:58:04Z</time>
      </trkpt>
      <trkpt lat="44.60374" lon="-0.25896">
        <ele>35.71</ele>
        <time>2016-02-23T09:58:06Z</time>
      </trkpt>
      <trkpt lat="44.60389" lon="-0.25906">
        <ele>35.71</ele>
        <time>2016-02-23T09:58:19Z</time>
      </trkpt>
      <trkpt lat="44.60404" lon="-0.25913">
        <ele>36.19</ele>
        <time>2016-02-23T09:58:32Z</time>
      </trkpt>
      <trkpt lat="44.60413" lon="-0.25922">
        <ele>37.15</ele>
        <time>2016-02-23T09:58:44Z</time>
      </trkpt>
      <trkpt lat="44.60422" lon="-0.25934">
        <ele>37.15</ele>
        <time>2016-02-23T09:58:59Z</time>
      </trkpt>
      <trkpt lat="44.60422" lon="-0.25936">
        <ele>37.15</ele>
        <time>2016-02-23T09:59:00Z</time>
      </trkpt>
      <trkpt lat="44.60434" lon="-0.25957">
        <ele>35.71</ele>
        <time>2016-02-23T09:59:20Z</time>
      </trkpt>
      <trkpt lat="44.60446" lon="-0.2597">
        <ele>34.74</ele>
        <time>2016-02-23T09:59:35Z</time>
      </trkpt>
      <trkpt lat="44.6045" lon="-0.25982">
        <ele>34.26</ele>
        <time>2016-02-23T09:59:48Z</time>
      </trkpt>
      <trkpt lat="44.60442" lon="-0.26001">
        <ele>33.78</ele>
        <time>2016-02-23T10:00:05Z</time>
      </trkpt>
      <trkpt lat="44.60436" lon="-0.26025">
        <ele>33.3</ele>
        <time>2016-02-23T10:00:22Z</time>
      </trkpt>
      <trkpt lat="44.6043" lon="-0.26057">
        <ele>33.3</ele>
        <time>2016-02-23T10:00:41Z</time>
      </trkpt>
      <trkpt lat="44.60436" lon="-0.2607">
        <ele>32.82</ele>
        <time>2016-02-23T10:00:59Z</time>
      </trkpt>
      <trkpt lat="44.60439" lon="-0.26092">
        <ele>32.82</ele>
        <time>2016-02-23T10:01:15Z</time>
      </trkpt>
      <trkpt lat="44.60447" lon="-0.26125">
        <ele>34.74</ele>
        <time>2016-02-23T10:01:33Z</time>
      </trkpt>
      <trkpt lat="44.60449" lon="-0.26146">
        <ele>34.74</ele>
        <time>2016-02-23T10:01:48Z</time>
      </trkpt>
      <trkpt lat="44.60458" lon="-0.26173">
        <ele>35.71</ele>
        <time>2016-02-23T10:02:08Z</time>
      </trkpt>
      <trkpt lat="44.60462" lon="-0.26186">
        <ele>35.71</ele>
        <time>2016-02-23T10:02:20Z</time>
      </trkpt>
      <trkpt lat="44.60476" lon="-0.26179">
        <ele>35.71</ele>
        <time>2016-02-23T10:02:34Z</time>
      </trkpt>
      <trkpt lat="44.60495" lon="-0.26171">
        <ele>35.71</ele>
        <time>2016-02-23T10:02:48Z</time>
      </trkpt>
      <trkpt lat="44.60511" lon="-0.26171">
        <ele>36.67</ele>
        <time>2016-02-23T10:03:04Z</time>
      </trkpt>
      <trkpt lat="44.60523" lon="-0.26181">
        <ele>38.59</ele>
        <time>2016-02-23T10:03:17Z</time>
      </trkpt>
      <trkpt lat="44.6053" lon="-0.26201">
        <ele>39.07</ele>
        <time>2016-02-23T10:03:32Z</time>
      </trkpt>
      <trkpt lat="44.60533" lon="-0.26205">
        <ele>39.55</ele>
        <time>2016-02-23T10:03:36Z</time>
      </trkpt>
      <trkpt lat="44.60534" lon="-0.26208">
        <ele>39.55</ele>
        <time>2016-02-23T10:03:38Z</time>
      </trkpt>
      <trkpt lat="44.60542" lon="-0.26231">
        <ele>41.47</ele>
        <time>2016-02-23T10:03:54Z</time>
      </trkpt>
      <trkpt lat="44.60553" lon="-0.26252">
        <ele>42.92</ele>
        <time>2016-02-23T10:04:11Z</time>
      </trkpt>
      <trkpt lat="44.60555" lon="-0.26255">
        <ele>43.88</ele>
        <time>2016-02-23T10:04:14Z</time>
      </trkpt>
      <trkpt lat="44.60557" lon="-0.26259">
        <ele>43.88</ele>
        <time>2016-02-23T10:04:17Z</time>
      </trkpt>
      <trkpt lat="44.60564" lon="-0.2628">
        <ele>46.28</ele>
        <time>2016-02-23T10:04:35Z</time>
      </trkpt>
      <trkpt lat="44.6057" lon="-0.26286">
        <ele>47.24</ele>
        <time>2016-02-23T10:04:44Z</time>
      </trkpt>
      <trkpt lat="44.60573" lon="-0.26287">
        <ele>48.2</ele>
        <time>2016-02-23T10:04:55Z</time>
      </trkpt>
      <trkpt lat="44.60572" lon="-0.26289">
        <ele>48.2</ele>
        <time>2016-02-23T10:05:16Z</time>
      </trkpt>
      <trkpt lat="44.6057" lon="-0.2629">
        <ele>48.2</ele>
        <time>2016-02-23T10:05:33Z</time>
      </trkpt>
      <trkpt lat="44.60569" lon="-0.2629">
        <ele>48.2</ele>
        <time>2016-02-23T10:05:42Z</time>
      </trkpt>
      <trkpt lat="44.60567" lon="-0.26291">
        <ele>46.76</ele>
        <time>2016-02-23T10:05:51Z</time>
      </trkpt>
      <trkpt lat="44.60569" lon="-0.26291">
        <ele>47.24</ele>
        <time>2016-02-23T10:06:04Z</time>
      </trkpt>
      <trkpt lat="44.60573" lon="-0.26289">
        <ele>47.24</ele>
        <time>2016-02-23T10:06:29Z</time>
      </trkpt>
      <trkpt lat="44.60572" lon="-0.26287">
        <ele>47.24</ele>
        <time>2016-02-23T10:06:43Z</time>
      </trkpt>
      <trkpt lat="44.60571" lon="-0.26288">
        <ele>47.24</ele>
        <time>2016-02-23T10:06:54Z</time>
      </trkpt>
      <trkpt lat="44.60571" lon="-0.26289">
        <ele>47.24</ele>
        <time>2016-02-23T10:07:09Z</time>
      </trkpt>
      <trkpt lat="44.6057" lon="-0.2629">
        <ele>47.24</ele>
        <time>2016-02-23T10:07:25Z</time>
      </trkpt>
      <trkpt lat="44.6057" lon="-0.2629">
        <ele>47.24</ele>
        <time>2016-02-23T10:07:39Z</time>
      </trkpt>
      <trkpt lat="44.60571" lon="-0.2629">
        <ele>47.24</ele>
        <time>2016-02-23T10:07:52Z</time>
      </trkpt>
      <trkpt lat="44.60575" lon="-0.26292">
        <ele>47.24</ele>
        <time>2016-02-23T10:08:05Z</time>
      </trkpt>
      <trkpt lat="44.60577" lon="-0.26293">
        <ele>48.2</ele>
        <time>2016-02-23T10:08:08Z</time>
      </trkpt>
      <trkpt lat="44.60588" lon="-0.26299">
        <ele>50.13</ele>
        <time>2016-02-23T10:08:22Z</time>
      </trkpt>
      <trkpt lat="44.60598" lon="-0.26304">
        <ele>51.57</ele>
        <time>2016-02-23T10:08:34Z</time>
      </trkpt>
      <trkpt lat="44.60601" lon="-0.26305">
        <ele>52.05</ele>
        <time>2016-02-23T10:08:37Z</time>
      </trkpt>
      <trkpt lat="44.60609" lon="-0.2631">
        <ele>53.49</ele>
        <time>2016-02-23T10:08:48Z</time>
      </trkpt>
      <trkpt lat="44.60619" lon="-0.26316">
        <ele>54.93</ele>
        <time>2016-02-23T10:09:01Z</time>
      </trkpt>
      <trkpt lat="44.6063" lon="-0.26324">
        <ele>56.37</ele>
        <time>2016-02-23T10:09:16Z</time>
      </trkpt>
      <trkpt lat="44.60644" lon="-0.26334">
        <ele>57.82</ele>
        <time>2016-02-23T10:09:33Z</time>
      </trkpt>
      <trkpt lat="44.60656" lon="-0.26344">
        <ele>59.26</ele>
        <time>2016-02-23T10:09:46Z</time>
      </trkpt>
      <trkpt lat="44.60663" lon="-0.26351">
        <ele>60.7</ele>
        <time>2016-02-23T10:09:55Z</time>
      </trkpt>
      <trkpt lat="44.60676" lon="-0.2636">
        <ele>61.66</ele>
        <time>2016-02-23T10:10:12Z</time>
      </trkpt>
      <trkpt lat="44.60682" lon="-0.26367">
        <ele>63.1</ele>
        <time>2016-02-23T10:10:25Z</time>
      </trkpt>
      <trkpt lat="44.60687" lon="-0.26382">
        <ele>63.58</ele>
        <time>2016-02-23T10:10:36Z</time>
      </trkpt>
      <trkpt lat="44.60693" lon="-0.26393">
        <ele>63.58</ele>
        <time>2016-02-23T10:10:45Z</time>
      </trkpt>
      <trkpt lat="44.60699" lon="-0.26407">
        <ele>63.58</ele>
        <time>2016-02-23T10:10:57Z</time>
      </trkpt>
      <trkpt lat="44.60708" lon="-0.26435">
        <ele>65.03</ele>
        <time>2016-02-23T10:11:17Z</time>
      </trkpt>
      <trkpt lat="44.60711" lon="-0.26462">
        <ele>66.47</ele>
        <time>2016-02-23T10:11:34Z</time>
      </trkpt>
      <trkpt lat="44.60711" lon="-0.26486">
        <ele>67.43</ele>
        <time>2016-02-23T10:11:50Z</time>
      </trkpt>
      <trkpt lat="44.60708" lon="-0.26504">
        <ele>68.39</ele>
        <time>2016-02-23T10:12:03Z</time>
      </trkpt>
      <trkpt lat="44.60704" lon="-0.26525">
        <ele>70.31</ele>
        <time>2016-02-23T10:12:19Z</time>
      </trkpt>
      <trkpt lat="44.607" lon="-0.26541">
        <ele>71.76</ele>
        <time>2016-02-23T10:12:32Z</time>
      </trkpt>
      <trkpt lat="44.60697" lon="-0.26557">
        <ele>73.2</ele>
        <time>2016-02-23T10:12:45Z</time>
      </trkpt>
      <trkpt lat="44.60694" lon="-0.26585">
        <ele>75.12</ele>
        <time>2016-02-23T10:13:03Z</time>
      </trkpt>
      <trkpt lat="44.60693" lon="-0.26593">
        <ele>75.6</ele>
        <time>2016-02-23T10:13:09Z</time>
      </trkpt>
      <trkpt lat="44.60691" lon="-0.26612">
        <ele>77.04</ele>
        <time>2016-02-23T10:13:22Z</time>
      </trkpt>
      <trkpt lat="44.60691" lon="-0.2664">
        <ele>78.97</ele>
        <time>2016-02-23T10:13:40Z</time>
      </trkpt>
      <trkpt lat="44.60688" lon="-0.26658">
        <ele>80.41</ele>
        <time>2016-02-23T10:13:54Z</time>
      </trkpt>
      <trkpt lat="44.60689" lon="-0.26664">
        <ele>78.48</ele>
        <time>2016-02-23T10:13:59Z</time>
      </trkpt>
      <trkpt lat="44.60688" lon="-0.26673">
        <ele>80.41</ele>
        <time>2016-02-23T10:14:05Z</time>
      </trkpt>
      <trkpt lat="44.60689" lon="-0.26692">
        <ele>80.41</ele>
        <time>2016-02-23T10:14:17Z</time>
      </trkpt>
      <trkpt lat="44.60692" lon="-0.26715">
        <ele>80.89</ele>
        <time>2016-02-23T10:14:31Z</time>
      </trkpt>
      <trkpt lat="44.60701" lon="-0.26729">
        <ele>80.89</ele>
        <time>2016-02-23T10:14:43Z</time>
      </trkpt>
      <trkpt lat="44.60716" lon="-0.26737">
        <ele>81.37</ele>
        <time>2016-02-23T10:14:56Z</time>
      </trkpt>
      <trkpt lat="44.60725" lon="-0.26741">
        <ele>81.37</ele>
        <time>2016-02-23T10:15:07Z</time>
      </trkpt>
      <trkpt lat="44.60744" lon="-0.26747">
        <ele>81.85</ele>
        <time>2016-02-23T10:15:24Z</time>
      </trkpt>
      <trkpt lat="44.60762" lon="-0.26754">
        <ele>82.33</ele>
        <time>2016-02-23T10:15:40Z</time>
      </trkpt>
      <trkpt lat="44.60778" lon="-0.26764">
        <ele>82.33</ele>
        <time>2016-02-23T10:15:55Z</time>
      </trkpt>
      <trkpt lat="44.60786" lon="-0.26768">
        <ele>82.33</ele>
        <time>2016-02-23T10:16:05Z</time>
      </trkpt>
      <trkpt lat="44.60802" lon="-0.2678">
        <ele>82.33</ele>
        <time>2016-02-23T10:16:21Z</time>
      </trkpt>
      <trkpt lat="44.60818" lon="-0.26788">
        <ele>82.81</ele>
        <time>2016-02-23T10:16:35Z</time>
      </trkpt>
      <trkpt lat="44.60824" lon="-0.26791">
        <ele>82.81</ele>
        <time>2016-02-23T10:16:41Z</time>
      </trkpt>
      <trkpt lat="44.6084" lon="-0.26799">
        <ele>82.81</ele>
        <time>2016-02-23T10:16:55Z</time>
      </trkpt>
      <trkpt lat="44.60858" lon="-0.26807">
        <ele>83.29</ele>
        <time>2016-02-23T10:17:11Z</time>
      </trkpt>
      <trkpt lat="44.60869" lon="-0.26811">
        <ele>83.77</ele>
        <time>2016-02-23T10:17:21Z</time>
      </trkpt>
      <trkpt lat="44.6087" lon="-0.26813">
        <ele>83.77</ele>
        <time>2016-02-23T10:17:23Z</time>
      </trkpt>
      <trkpt lat="44.60871" lon="-0.26819">
        <ele>83.77</ele>
        <time>2016-02-23T10:17:27Z</time>
      </trkpt>
      <trkpt lat="44.60869" lon="-0.26833">
        <ele>83.77</ele>
        <time>2016-02-23T10:17:37Z</time>
      </trkpt>
      <trkpt lat="44.60864" lon="-0.26848">
        <ele>84.25</ele>
        <time>2016-02-23T10:17:49Z</time>
      </trkpt>
      <trkpt lat="44.6086" lon="-0.26867">
        <ele>84.25</ele>
        <time>2016-02-23T10:18:02Z</time>
      </trkpt>
      <trkpt lat="44.60854" lon="-0.26886">
        <ele>84.25</ele>
        <time>2016-02-23T10:18:17Z</time>
      </trkpt>
      <trkpt lat="44.60849" lon="-0.26901">
        <ele>84.25</ele>
        <time>2016-02-23T10:18:29Z</time>
      </trkpt>
      <trkpt lat="44.60847" lon="-0.2692">
        <ele>84.73</ele>
        <time>2016-02-23T10:18:41Z</time>
      </trkpt>
      <trkpt lat="44.60846" lon="-0.2694">
        <ele>84.73</ele>
        <time>2016-02-23T10:18:55Z</time>
      </trkpt>
      <trkpt lat="44.60847" lon="-0.26961">
        <ele>85.21</ele>
        <time>2016-02-23T10:19:09Z</time>
      </trkpt>
      <trkpt lat="44.60849" lon="-0.26977">
        <ele>85.69</ele>
        <time>2016-02-23T10:19:21Z</time>
      </trkpt>
      <trkpt lat="44.60852" lon="-0.27001">
        <ele>85.69</ele>
        <time>2016-02-23T10:19:37Z</time>
      </trkpt>
      <trkpt lat="44.60854" lon="-0.27011">
        <ele>86.18</ele>
        <time>2016-02-23T10:19:47Z</time>
      </trkpt>
      <trkpt lat="44.60857" lon="-0.27029">
        <ele>86.18</ele>
        <time>2016-02-23T10:20:00Z</time>
      </trkpt>
      <trkpt lat="44.60861" lon="-0.27045">
        <ele>87.14</ele>
        <time>2016-02-23T10:20:12Z</time>
      </trkpt>
      <trkpt lat="44.60867" lon="-0.2706">
        <ele>88.58</ele>
        <time>2016-02-23T10:20:25Z</time>
      </trkpt>
      <trkpt lat="44.60867" lon="-0.27063">
        <ele>88.58</ele>
        <time>2016-02-23T10:20:27Z</time>
      </trkpt>
      <trkpt lat="44.60872" lon="-0.27081">
        <ele>88.58</ele>
        <time>2016-02-23T10:20:40Z</time>
      </trkpt>
      <trkpt lat="44.60873" lon="-0.27095">
        <ele>89.06</ele>
        <time>2016-02-23T10:20:52Z</time>
      </trkpt>
      <trkpt lat="44.60874" lon="-0.27113">
        <ele>89.06</ele>
        <time>2016-02-23T10:21:04Z</time>
      </trkpt>
      <trkpt lat="44.60877" lon="-0.27129">
        <ele>89.54</ele>
        <time>2016-02-23T10:21:16Z</time>
      </trkpt>
      <trkpt lat="44.60877" lon="-0.27132">
        <ele>90.02</ele>
        <time>2016-02-23T10:21:18Z</time>
      </trkpt>
      <trkpt lat="44.60879" lon="-0.27153">
        <ele>89.54</ele>
        <time>2016-02-23T10:21:33Z</time>
      </trkpt>
      <trkpt lat="44.60881" lon="-0.27172">
        <ele>89.54</ele>
        <time>2016-02-23T10:21:46Z</time>
      </trkpt>
      <trkpt lat="44.60881" lon="-0.27178">
        <ele>90.98</ele>
        <time>2016-02-23T10:21:50Z</time>
      </trkpt>
      <trkpt lat="44.6088" lon="-0.272">
        <ele>90.5</ele>
        <time>2016-02-23T10:22:04Z</time>
      </trkpt>
      <trkpt lat="44.6088" lon="-0.27202">
        <ele>90.5</ele>
        <time>2016-02-23T10:22:05Z</time>
      </trkpt>
      <trkpt lat="44.6088" lon="-0.27206">
        <ele>92.42</ele>
        <time>2016-02-23T10:22:07Z</time>
      </trkpt>
      <trkpt lat="44.60879" lon="-0.2721">
        <ele>91.46</ele>
        <time>2016-02-23T10:22:10Z</time>
      </trkpt>
      <trkpt lat="44.60878" lon="-0.27218">
        <ele>92.9</ele>
        <time>2016-02-23T10:22:15Z</time>
      </trkpt>
      <trkpt lat="44.60874" lon="-0.27237">
        <ele>93.87</ele>
        <time>2016-02-23T10:22:29Z</time>
      </trkpt>
      <trkpt lat="44.60875" lon="-0.27239">
        <ele>92.42</ele>
        <time>2016-02-23T10:22:32Z</time>
      </trkpt>
      <trkpt lat="44.6088" lon="-0.27248">
        <ele>92.42</ele>
        <time>2016-02-23T10:22:40Z</time>
      </trkpt>
      <trkpt lat="44.60892" lon="-0.27258">
        <ele>94.83</ele>
        <time>2016-02-23T10:22:52Z</time>
      </trkpt>
      <trkpt lat="44.60902" lon="-0.27267">
        <ele>94.83</ele>
        <time>2016-02-23T10:23:03Z</time>
      </trkpt>
      <trkpt lat="44.60912" lon="-0.27277">
        <ele>94.83</ele>
        <time>2016-02-23T10:23:13Z</time>
      </trkpt>
      <trkpt lat="44.60915" lon="-0.27281">
        <ele>95.31</ele>
        <time>2016-02-23T10:23:24Z</time>
      </trkpt>
      <trkpt lat="44.60914" lon="-0.27281">
        <ele>95.31</ele>
        <time>2016-02-23T10:23:36Z</time>
      </trkpt>
      <trkpt lat="44.60914" lon="-0.27281">
        <ele>95.31</ele>
        <time>2016-02-23T10:23:50Z</time>
      </trkpt>
      <trkpt lat="44.60914" lon="-0.27281">
        <ele>95.79</ele>
        <time>2016-02-23T10:24:01Z</time>
      </trkpt>
      <trkpt lat="44.60914" lon="-0.27281">
        <ele>95.79</ele>
        <time>2016-02-23T10:24:19Z</time>
      </trkpt>
      <trkpt lat="44.60911" lon="-0.27276">
        <ele>95.79</ele>
        <time>2016-02-23T10:24:34Z</time>
      </trkpt>
      <trkpt lat="44.60911" lon="-0.27275">
        <ele>95.79</ele>
        <time>2016-02-23T10:24:53Z</time>
      </trkpt>
      <trkpt lat="44.6091" lon="-0.27275">
        <ele>95.79</ele>
        <time>2016-02-23T10:25:14Z</time>
      </trkpt>
      <trkpt lat="44.60911" lon="-0.27276">
        <ele>95.79</ele>
        <time>2016-02-23T10:25:32Z</time>
      </trkpt>
      <trkpt lat="44.60912" lon="-0.27277">
        <ele>95.79</ele>
        <time>2016-02-23T10:25:46Z</time>
      </trkpt>
      <trkpt lat="44.60915" lon="-0.2728">
        <ele>96.27</ele>
        <time>2016-02-23T10:25:59Z</time>
      </trkpt>
      <trkpt lat="44.60921" lon="-0.27286">
        <ele>96.27</ele>
        <time>2016-02-23T10:26:07Z</time>
      </trkpt>
      <trkpt lat="44.60923" lon="-0.27292">
        <ele>97.71</ele>
        <time>2016-02-23T10:26:14Z</time>
      </trkpt>
      <trkpt lat="44.60924" lon="-0.27295">
        <ele>96.27</ele>
        <time>2016-02-23T10:26:19Z</time>
      </trkpt>
      <trkpt lat="44.60922" lon="-0.27301">
        <ele>97.23</ele>
        <time>2016-02-23T10:26:29Z</time>
      </trkpt>
      <trkpt lat="44.60922" lon="-0.27294">
        <ele>96.27</ele>
        <time>2016-02-23T10:26:42Z</time>
      </trkpt>
      <trkpt lat="44.60922" lon="-0.27296">
        <ele>95.31</ele>
        <time>2016-02-23T10:26:44Z</time>
      </trkpt>
      <trkpt lat="44.6092" lon="-0.27303">
        <ele>95.31</ele>
        <time>2016-02-23T10:26:50Z</time>
      </trkpt>
      <trkpt lat="44.60918" lon="-0.27309">
        <ele>96.27</ele>
        <time>2016-02-23T10:26:55Z</time>
      </trkpt>
      <trkpt lat="44.60913" lon="-0.27326">
        <ele>96.27</ele>
        <time>2016-02-23T10:27:08Z</time>
      </trkpt>
      <trkpt lat="44.60911" lon="-0.27345">
        <ele>96.75</ele>
        <time>2016-02-23T10:27:20Z</time>
      </trkpt>
      <trkpt lat="44.60911" lon="-0.27366">
        <ele>96.75</ele>
        <time>2016-02-23T10:27:35Z</time>
      </trkpt>
      <trkpt lat="44.60911" lon="-0.27384">
        <ele>96.75</ele>
        <time>2016-02-23T10:27:47Z</time>
      </trkpt>
      <trkpt lat="44.60911" lon="-0.27387">
        <ele>96.75</ele>
        <time>2016-02-23T10:27:49Z</time>
      </trkpt>
      <trkpt lat="44.60912" lon="-0.27402">
        <ele>95.31</ele>
        <time>2016-02-23T10:27:58Z</time>
      </trkpt>
      <trkpt lat="44.60912" lon="-0.2742">
        <ele>94.83</ele>
        <time>2016-02-23T10:28:09Z</time>
      </trkpt>
      <trkpt lat="44.60914" lon="-0.27442">
        <ele>94.83</ele>
        <time>2016-02-23T10:28:22Z</time>
      </trkpt>
      <trkpt lat="44.60916" lon="-0.27459">
        <ele>94.83</ele>
        <time>2016-02-23T10:28:33Z</time>
      </trkpt>
      <trkpt lat="44.60916" lon="-0.27471">
        <ele>94.83</ele>
        <time>2016-02-23T10:28:41Z</time>
      </trkpt>
      <trkpt lat="44.60919" lon="-0.27494">
        <ele>93.39</ele>
        <time>2016-02-23T10:28:55Z</time>
      </trkpt>
      <trkpt lat="44.60918" lon="-0.27514">
        <ele>92.9</ele>
        <time>2016-02-23T10:29:07Z</time>
      </trkpt>
      <trkpt lat="44.60916" lon="-0.27531">
        <ele>92.9</ele>
        <time>2016-02-23T10:29:18Z</time>
      </trkpt>
      <trkpt lat="44.60914" lon="-0.27548">
        <ele>91.94</ele>
        <time>2016-02-23T10:29:29Z</time>
      </trkpt>
      <trkpt lat="44.60912" lon="-0.27566">
        <ele>91.94</ele>
        <time>2016-02-23T10:29:41Z</time>
      </trkpt>
      <trkpt lat="44.60911" lon="-0.2758">
        <ele>91.94</ele>
        <time>2016-02-23T10:29:50Z</time>
      </trkpt>
      <trkpt lat="44.60912" lon="-0.27597">
        <ele>91.94</ele>
        <time>2016-02-23T10:30:02Z</time>
      </trkpt>
      <trkpt lat="44.60913" lon="-0.27602">
        <ele>91.46</ele>
        <time>2016-02-23T10:30:05Z</time>
      </trkpt>
      <trkpt lat="44.60917" lon="-0.27614">
        <ele>90.5</ele>
        <time>2016-02-23T10:30:17Z</time>
      </trkpt>
      <trkpt lat="44.60918" lon="-0.27615">
        <ele>90.5</ele>
        <time>2016-02-23T10:30:18Z</time>
      </trkpt>
      <trkpt lat="44.60924" lon="-0.2762">
        <ele>91.94</ele>
        <time>2016-02-23T10:30:24Z</time>
      </trkpt>
      <trkpt lat="44.60935" lon="-0.27627">
        <ele>90.5</ele>
        <time>2016-02-23T10:30:34Z</time>
      </trkpt>
      <trkpt lat="44.60946" lon="-0.27635">
        <ele>90.5</ele>
        <time>2016-02-23T10:30:45Z</time>
      </trkpt>
      <trkpt lat="44.60952" lon="-0.2764">
        <ele>90.5</ele>
        <time>2016-02-23T10:30:51Z</time>
      </trkpt>
      <trkpt lat="44.60959" lon="-0.27644">
        <ele>90.5</ele>
        <time>2016-02-23T10:30:57Z</time>
      </trkpt>
      <trkpt lat="44.60972" lon="-0.27655">
        <ele>90.5</ele>
        <time>2016-02-23T10:31:10Z</time>
      </trkpt>
      <trkpt lat="44.60976" lon="-0.27658">
        <ele>90.5</ele>
        <time>2016-02-23T10:31:14Z</time>
      </trkpt>
      <trkpt lat="44.6099" lon="-0.27666">
        <ele>90.02</ele>
        <time>2016-02-23T10:31:27Z</time>
      </trkpt>
      <trkpt lat="44.61002" lon="-0.27673">
        <ele>89.54</ele>
        <time>2016-02-23T10:31:38Z</time>
      </trkpt>
      <trkpt lat="44.61015" lon="-0.27681">
        <ele>88.58</ele>
        <time>2016-02-23T10:31:50Z</time>
      </trkpt>
      <trkpt lat="44.61016" lon="-0.27682">
        <ele>88.58</ele>
        <time>2016-02-23T10:31:51Z</time>
      </trkpt>
      <trkpt lat="44.61017" lon="-0.27682">
        <ele>88.58</ele>
        <time>2016-02-23T10:31:53Z</time>
      </trkpt>
      <trkpt lat="44.61029" lon="-0.2769">
        <ele>87.14</ele>
        <time>2016-02-23T10:32:05Z</time>
      </trkpt>
      <trkpt lat="44.61044" lon="-0.27697">
        <ele>86.66</ele>
        <time>2016-02-23T10:32:17Z</time>
      </trkpt>
      <trkpt lat="44.61058" lon="-0.27705">
        <ele>86.18</ele>
        <time>2016-02-23T10:32:29Z</time>
      </trkpt>
      <trkpt lat="44.61068" lon="-0.27711">
        <ele>86.18</ele>
        <time>2016-02-23T10:32:41Z</time>
      </trkpt>
      <trkpt lat="44.61078" lon="-0.27718">
        <ele>85.69</ele>
        <time>2016-02-23T10:32:51Z</time>
      </trkpt>
      <trkpt lat="44.61088" lon="-0.27725">
        <ele>85.21</ele>
        <time>2016-02-23T10:33:03Z</time>
      </trkpt>
      <trkpt lat="44.61102" lon="-0.27736">
        <ele>84.25</ele>
        <time>2016-02-23T10:33:16Z</time>
      </trkpt>
      <trkpt lat="44.61112" lon="-0.27741">
        <ele>83.77</ele>
        <time>2016-02-23T10:33:26Z</time>
      </trkpt>
      <trkpt lat="44.61117" lon="-0.27746">
        <ele>83.29</ele>
        <time>2016-02-23T10:33:33Z</time>
      </trkpt>
      <trkpt lat="44.6112" lon="-0.27752">
        <ele>83.29</ele>
        <time>2016-02-23T10:33:39Z</time>
      </trkpt>
      <trkpt lat="44.61114" lon="-0.27765">
        <ele>82.81</ele>
        <time>2016-02-23T10:33:51Z</time>
      </trkpt>
      <trkpt lat="44.61105" lon="-0.27778">
        <ele>82.81</ele>
        <time>2016-02-23T10:34:02Z</time>
      </trkpt>
      <trkpt lat="44.61097" lon="-0.27794">
        <ele>82.81</ele>
        <time>2016-02-23T10:34:15Z</time>
      </trkpt>
      <trkpt lat="44.61089" lon="-0.27809">
        <ele>82.81</ele>
        <time>2016-02-23T10:34:27Z</time>
      </trkpt>
      <trkpt lat="44.61088" lon="-0.27812">
        <ele>82.81</ele>
        <time>2016-02-23T10:34:30Z</time>
      </trkpt>
      <trkpt lat="44.61085" lon="-0.27824">
        <ele>82.33</ele>
        <time>2016-02-23T10:34:42Z</time>
      </trkpt>
      <trkpt lat="44.61084" lon="-0.2783">
        <ele>81.85</ele>
        <time>2016-02-23T10:34:54Z</time>
      </trkpt>
      <trkpt lat="44.61084" lon="-0.27833">
        <ele>81.85</ele>
        <time>2016-02-23T10:35:06Z</time>
      </trkpt>
      <trkpt lat="44.61077" lon="-0.27845">
        <ele>83.29</ele>
        <time>2016-02-23T10:35:19Z</time>
      </trkpt>
      <trkpt lat="44.61071" lon="-0.27857">
        <ele>81.37</ele>
        <time>2016-02-23T10:35:29Z</time>
      </trkpt>
      <trkpt lat="44.61062" lon="-0.27872">
        <ele>81.37</ele>
        <time>2016-02-23T10:35:42Z</time>
      </trkpt>
      <trkpt lat="44.61056" lon="-0.27887">
        <ele>80.89</ele>
        <time>2016-02-23T10:35:53Z</time>
      </trkpt>
      <trkpt lat="44.61047" lon="-0.27903">
        <ele>79.45</ele>
        <time>2016-02-23T10:36:05Z</time>
      </trkpt>
      <trkpt lat="44.61038" lon="-0.27916">
        <ele>77.04</ele>
        <time>2016-02-23T10:36:18Z</time>
      </trkpt>
      <trkpt lat="44.61033" lon="-0.27927">
        <ele>75.6</ele>
        <time>2016-02-23T10:36:26Z</time>
      </trkpt>
      <trkpt lat="44.61027" lon="-0.27927">
        <ele>75.12</ele>
        <time>2016-02-23T10:36:32Z</time>
      </trkpt>
      <trkpt lat="44.61013" lon="-0.27924">
        <ele>72.72</ele>
        <time>2016-02-23T10:36:44Z</time>
      </trkpt>
      <trkpt lat="44.61002" lon="-0.27922">
        <ele>70.79</ele>
        <time>2016-02-23T10:36:55Z</time>
      </trkpt>
      <trkpt lat="44.60989" lon="-0.27917">
        <ele>68.87</ele>
        <time>2016-02-23T10:37:07Z</time>
      </trkpt>
      <trkpt lat="44.60982" lon="-0.27912">
        <ele>67.91</ele>
        <time>2016-02-23T10:37:17Z</time>
      </trkpt>
      <trkpt lat="44.60972" lon="-0.279">
        <ele>65.99</ele>
        <time>2016-02-23T10:37:31Z</time>
      </trkpt>
      <trkpt lat="44.60961" lon="-0.27888">
        <ele>65.51</ele>
        <time>2016-02-23T10:37:43Z</time>
      </trkpt>
      <trkpt lat="44.60956" lon="-0.27875">
        <ele>65.03</ele>
        <time>2016-02-23T10:37:54Z</time>
      </trkpt>
      <trkpt lat="44.60955" lon="-0.27865">
        <ele>65.03</ele>
        <time>2016-02-23T10:38:16Z</time>
      </trkpt>
      <trkpt lat="44.60957" lon="-0.27863">
        <ele>65.03</ele>
        <time>2016-02-23T10:38:29Z</time>
      </trkpt>
      <trkpt lat="44.60958" lon="-0.27865">
        <ele>64.07</ele>
        <time>2016-02-23T10:38:46Z</time>
      </trkpt>
      <trkpt lat="44.60958" lon="-0.27866">
        <ele>65.99</ele>
        <time>2016-02-23T10:38:48Z</time>
      </trkpt>
      <trkpt lat="44.60958" lon="-0.27867">
        <ele>64.55</ele>
        <time>2016-02-23T10:38:50Z</time>
      </trkpt>
      <trkpt lat="44.60958" lon="-0.27873">
        <ele>64.55</ele>
        <time>2016-02-23T10:39:01Z</time>
      </trkpt>
      <trkpt lat="44.60958" lon="-0.27868">
        <ele>64.55</ele>
        <time>2016-02-23T10:39:19Z</time>
      </trkpt>
      <trkpt lat="44.60947" lon="-0.27878">
        <ele>64.55</ele>
        <time>2016-02-23T10:39:31Z</time>
      </trkpt>
      <trkpt lat="44.60936" lon="-0.27882">
        <ele>64.55</ele>
        <time>2016-02-23T10:39:43Z</time>
      </trkpt>
      <trkpt lat="44.60923" lon="-0.27884">
        <ele>64.55</ele>
        <time>2016-02-23T10:39:55Z</time>
      </trkpt>
      <trkpt lat="44.60912" lon="-0.27881">
        <ele>65.51</ele>
        <time>2016-02-23T10:40:09Z</time>
      </trkpt>
      <trkpt lat="44.60903" lon="-0.27885">
        <ele>65.51</ele>
        <time>2016-02-23T10:40:20Z</time>
      </trkpt>
      <trkpt lat="44.60899" lon="-0.27892">
        <ele>65.99</ele>
        <time>2016-02-23T10:40:27Z</time>
      </trkpt>
      <trkpt lat="44.6089" lon="-0.27903">
        <ele>66.95</ele>
        <time>2016-02-23T10:40:40Z</time>
      </trkpt>
      <trkpt lat="44.60882" lon="-0.27906">
        <ele>67.91</ele>
        <time>2016-02-23T10:40:51Z</time>
      </trkpt>
      <trkpt lat="44.60871" lon="-0.27904">
        <ele>68.87</ele>
        <time>2016-02-23T10:41:03Z</time>
      </trkpt>
      <trkpt lat="44.60861" lon="-0.279">
        <ele>69.83</ele>
        <time>2016-02-23T10:41:14Z</time>
      </trkpt>
      <trkpt lat="44.60849" lon="-0.27902">
        <ele>69.83</ele>
        <time>2016-02-23T10:41:27Z</time>
      </trkpt>
      <trkpt lat="44.6084" lon="-0.27902">
        <ele>70.31</ele>
        <time>2016-02-23T10:41:37Z</time>
      </trkpt>
      <trkpt lat="44.6083" lon="-0.27903">
        <ele>70.79</ele>
        <time>2016-02-23T10:41:50Z</time>
      </trkpt>
      <trkpt lat="44.60817" lon="-0.27899">
        <ele>71.27</ele>
        <time>2016-02-23T10:42:04Z</time>
      </trkpt>
      <trkpt lat="44.60809" lon="-0.27894">
        <ele>71.27</ele>
        <time>2016-02-23T10:42:15Z</time>
      </trkpt>
      <trkpt lat="44.60796" lon="-0.27888">
        <ele>72.24</ele>
        <time>2016-02-23T10:42:29Z</time>
      </trkpt>
      <trkpt lat="44.60781" lon="-0.27889">
        <ele>73.68</ele>
        <time>2016-02-23T10:42:43Z</time>
      </trkpt>
      <trkpt lat="44.60768" lon="-0.27885">
        <ele>73.68</ele>
        <time>2016-02-23T10:42:56Z</time>
      </trkpt>
      <trkpt lat="44.60763" lon="-0.27882">
        <ele>74.64</ele>
        <time>2016-02-23T10:43:01Z</time>
      </trkpt>
      <trkpt lat="44.60751" lon="-0.27874">
        <ele>75.6</ele>
        <time>2016-02-23T10:43:13Z</time>
      </trkpt>
      <trkpt lat="44.60737" lon="-0.27866">
        <ele>76.08</ele>
        <time>2016-02-23T10:43:27Z</time>
      </trkpt>
      <trkpt lat="44.60724" lon="-0.27861">
        <ele>77.52</ele>
        <time>2016-02-23T10:43:39Z</time>
      </trkpt>
      <trkpt lat="44.60706" lon="-0.27855">
        <ele>79.93</ele>
        <time>2016-02-23T10:43:57Z</time>
      </trkpt>
      <trkpt lat="44.60692" lon="-0.27843">
        <ele>81.85</ele>
        <time>2016-02-23T10:44:15Z</time>
      </trkpt>
      <trkpt lat="44.60675" lon="-0.27834">
        <ele>83.29</ele>
        <time>2016-02-23T10:44:35Z</time>
      </trkpt>
      <trkpt lat="44.6066" lon="-0.2785">
        <ele>84.73</ele>
        <time>2016-02-23T10:44:52Z</time>
      </trkpt>
      <trkpt lat="44.60651" lon="-0.27861">
        <ele>85.21</ele>
        <time>2016-02-23T10:45:07Z</time>
      </trkpt>
      <trkpt lat="44.60653" lon="-0.27862">
        <ele>86.18</ele>
        <time>2016-02-23T10:45:22Z</time>
      </trkpt>
      <trkpt lat="44.6065" lon="-0.27863">
        <ele>86.18</ele>
        <time>2016-02-23T10:45:39Z</time>
      </trkpt>
      <trkpt lat="44.60649" lon="-0.27867">
        <ele>84.73</ele>
        <time>2016-02-23T10:45:43Z</time>
      </trkpt>
      <trkpt lat="44.60642" lon="-0.27878">
        <ele>86.18</ele>
        <time>2016-02-23T10:45:55Z</time>
      </trkpt>
      <trkpt lat="44.60641" lon="-0.27879">
        <ele>86.18</ele>
        <time>2016-02-23T10:45:56Z</time>
      </trkpt>
      <trkpt lat="44.60633" lon="-0.27892">
        <ele>87.62</ele>
        <time>2016-02-23T10:46:09Z</time>
      </trkpt>
      <trkpt lat="44.60623" lon="-0.27906">
        <ele>88.58</ele>
        <time>2016-02-23T10:46:24Z</time>
      </trkpt>
      <trkpt lat="44.60613" lon="-0.27921">
        <ele>90.5</ele>
        <time>2016-02-23T10:46:38Z</time>
      </trkpt>
      <trkpt lat="44.60606" lon="-0.27934">
        <ele>91.46</ele>
        <time>2016-02-23T10:46:51Z</time>
      </trkpt>
      <trkpt lat="44.60598" lon="-0.27947">
        <ele>93.39</ele>
        <time>2016-02-23T10:47:05Z</time>
      </trkpt>
      <trkpt lat="44.60591" lon="-0.27961">
        <ele>95.31</ele>
        <time>2016-02-23T10:47:19Z</time>
      </trkpt>
      <trkpt lat="44.60584" lon="-0.27975">
        <ele>96.27</ele>
        <time>2016-02-23T10:47:33Z</time>
      </trkpt>
      <trkpt lat="44.60578" lon="-0.27987">
        <ele>98.19</ele>
        <time>2016-02-23T10:47:45Z</time>
      </trkpt>
      <trkpt lat="44.60573" lon="-0.27996">
        <ele>99.63</ele>
        <time>2016-02-23T10:47:57Z</time>
      </trkpt>
      <trkpt lat="44.60573" lon="-0.27996">
        <ele>99.63</ele>
        <time>2016-02-23T10:48:02Z</time>
      </trkpt>
      <trkpt lat="44.60575" lon="-0.27987">
        <ele>98.67</ele>
        <time>2016-02-23T10:48:13Z</time>
      </trkpt>
      <trkpt lat="44.60575" lon="-0.27989">
        <ele>98.67</ele>
        <time>2016-02-23T10:48:33Z</time>
      </trkpt>
      <trkpt lat="44.60572" lon="-0.27994">
        <ele>99.63</ele>
        <time>2016-02-23T10:48:38Z</time>
      </trkpt>
      <trkpt lat="44.60563" lon="-0.2801">
        <ele>101.56</ele>
        <time>2016-02-23T10:48:54Z</time>
      </trkpt>
      <trkpt lat="44.60549" lon="-0.28009">
        <ele>103</ele>
        <time>2016-02-23T10:49:11Z</time>
      </trkpt>
      <trkpt lat="44.60547" lon="-0.28008">
        <ele>103</ele>
        <time>2016-02-23T10:49:13Z</time>
      </trkpt>
      <trkpt lat="44.60536" lon="-0.27992">
        <ele>103.96</ele>
        <time>2016-02-23T10:49:27Z</time>
      </trkpt>
      <trkpt lat="44.60531" lon="-0.27986">
        <ele>103.96</ele>
        <time>2016-02-23T10:49:34Z</time>
      </trkpt>
      <trkpt lat="44.6052" lon="-0.27973">
        <ele>104.92</ele>
        <time>2016-02-23T10:49:49Z</time>
      </trkpt>
      <trkpt lat="44.60509" lon="-0.27967">
        <ele>105.88</ele>
        <time>2016-02-23T10:50:03Z</time>
      </trkpt>
      <trkpt lat="44.60499" lon="-0.27976">
        <ele>105.88</ele>
        <time>2016-02-23T10:50:18Z</time>
      </trkpt>
      <trkpt lat="44.60488" lon="-0.27999">
        <ele>106.84</ele>
        <time>2016-02-23T10:50:37Z</time>
      </trkpt>
      <trkpt lat="44.60478" lon="-0.28011">
        <ele>107.32</ele>
        <time>2016-02-23T10:50:53Z</time>
      </trkpt>
      <trkpt lat="44.60477" lon="-0.28014">
        <ele>107.32</ele>
        <time>2016-02-23T10:50:55Z</time>
      </trkpt>
      <trkpt lat="44.60476" lon="-0.2803">
        <ele>106.36</ele>
        <time>2016-02-23T10:51:06Z</time>
      </trkpt>
      <trkpt lat="44.60478" lon="-0.28038">
        <ele>106.84</ele>
        <time>2016-02-23T10:51:12Z</time>
      </trkpt>
      <trkpt lat="44.60476" lon="-0.28043">
        <ele>106.84</ele>
        <time>2016-02-23T10:51:16Z</time>
      </trkpt>
      <trkpt lat="44.60467" lon="-0.28058">
        <ele>108.29</ele>
        <time>2016-02-23T10:51:30Z</time>
      </trkpt>
      <trkpt lat="44.60458" lon="-0.28073">
        <ele>108.29</ele>
        <time>2016-02-23T10:51:43Z</time>
      </trkpt>
      <trkpt lat="44.60449" lon="-0.28085">
        <ele>106.36</ele>
        <time>2016-02-23T10:51:54Z</time>
      </trkpt>
      <trkpt lat="44.60447" lon="-0.28088">
        <ele>107.81</ele>
        <time>2016-02-23T10:51:56Z</time>
      </trkpt>
      <trkpt lat="44.60441" lon="-0.28099">
        <ele>106.84</ele>
        <time>2016-02-23T10:52:05Z</time>
      </trkpt>
      <trkpt lat="44.60433" lon="-0.28113">
        <ele>107.32</ele>
        <time>2016-02-23T10:52:17Z</time>
      </trkpt>
      <trkpt lat="44.60424" lon="-0.28129">
        <ele>107.81</ele>
        <time>2016-02-23T10:52:30Z</time>
      </trkpt>
      <trkpt lat="44.60415" lon="-0.28144">
        <ele>105.4</ele>
        <time>2016-02-23T10:52:42Z</time>
      </trkpt>
      <trkpt lat="44.60411" lon="-0.28151">
        <ele>106.84</ele>
        <time>2016-02-23T10:52:47Z</time>
      </trkpt>
      <trkpt lat="44.60404" lon="-0.28163">
        <ele>106.84</ele>
        <time>2016-02-23T10:52:57Z</time>
      </trkpt>
      <trkpt lat="44.60402" lon="-0.28167">
        <ele>105.4</ele>
        <time>2016-02-23T10:53:00Z</time>
      </trkpt>
      <trkpt lat="44.60393" lon="-0.28182">
        <ele>105.4</ele>
        <time>2016-02-23T10:53:13Z</time>
      </trkpt>
      <trkpt lat="44.60385" lon="-0.28196">
        <ele>105.4</ele>
        <time>2016-02-23T10:53:24Z</time>
      </trkpt>
      <trkpt lat="44.60377" lon="-0.28209">
        <ele>105.4</ele>
        <time>2016-02-23T10:53:35Z</time>
      </trkpt>
      <trkpt lat="44.60368" lon="-0.28223">
        <ele>105.4</ele>
        <time>2016-02-23T10:53:46Z</time>
      </trkpt>
      <trkpt lat="44.6036" lon="-0.28238">
        <ele>105.4</ele>
        <time>2016-02-23T10:53:58Z</time>
      </trkpt>
      <trkpt lat="44.60357" lon="-0.28243">
        <ele>105.4</ele>
        <time>2016-02-23T10:54:02Z</time>
      </trkpt>
      <trkpt lat="44.60347" lon="-0.28261">
        <ele>104.92</ele>
        <time>2016-02-23T10:54:16Z</time>
      </trkpt>
      <trkpt lat="44.60339" lon="-0.28274">
        <ele>104.44</ele>
        <time>2016-02-23T10:54:26Z</time>
      </trkpt>
      <trkpt lat="44.60337" lon="-0.2828">
        <ele>105.4</ele>
        <time>2016-02-23T10:54:31Z</time>
      </trkpt>
      <trkpt lat="44.60336" lon="-0.28286">
        <ele>105.4</ele>
        <time>2016-02-23T10:54:35Z</time>
      </trkpt>
      <trkpt lat="44.60347" lon="-0.28303">
        <ele>104.44</ele>
        <time>2016-02-23T10:54:50Z</time>
      </trkpt>
      <trkpt lat="44.60357" lon="-0.28313">
        <ele>104.44</ele>
        <time>2016-02-23T10:55:02Z</time>
      </trkpt>
      <trkpt lat="44.60369" lon="-0.28328">
        <ele>104.44</ele>
        <time>2016-02-23T10:55:17Z</time>
      </trkpt>
      <trkpt lat="44.6038" lon="-0.28343">
        <ele>103.96</ele>
        <time>2016-02-23T10:55:29Z</time>
      </trkpt>
      <trkpt lat="44.6038" lon="-0.2835">
        <ele>103</ele>
        <time>2016-02-23T10:55:34Z</time>
      </trkpt>
      <trkpt lat="44.60375" lon="-0.28355">
        <ele>103</ele>
        <time>2016-02-23T10:55:39Z</time>
      </trkpt>
      <trkpt lat="44.6036" lon="-0.28361">
        <ele>102.52</ele>
        <time>2016-02-23T10:55:53Z</time>
      </trkpt>
      <trkpt lat="44.60357" lon="-0.28363">
        <ele>102.52</ele>
        <time>2016-02-23T10:55:57Z</time>
      </trkpt>
      <trkpt lat="44.6035" lon="-0.28367">
        <ele>103.96</ele>
        <time>2016-02-23T10:56:04Z</time>
      </trkpt>
      <trkpt lat="44.60347" lon="-0.28369">
        <ele>102.52</ele>
        <time>2016-02-23T10:56:07Z</time>
      </trkpt>
      <trkpt lat="44.60345" lon="-0.28369">
        <ele>102.04</ele>
        <time>2016-02-23T10:56:09Z</time>
      </trkpt>
      <trkpt lat="44.60333" lon="-0.28381">
        <ele>104.44</ele>
        <time>2016-02-23T10:56:20Z</time>
      </trkpt>
      <trkpt lat="44.60331" lon="-0.28383">
        <ele>104.44</ele>
        <time>2016-02-23T10:56:22Z</time>
      </trkpt>
      <trkpt lat="44.60315" lon="-0.28398">
        <ele>103</ele>
        <time>2016-02-23T10:56:37Z</time>
      </trkpt>
      <trkpt lat="44.6031" lon="-0.28403">
        <ele>103</ele>
        <time>2016-02-23T10:56:42Z</time>
      </trkpt>
      <trkpt lat="44.60297" lon="-0.28407">
        <ele>102.52</ele>
        <time>2016-02-23T10:56:53Z</time>
      </trkpt>
      <trkpt lat="44.60286" lon="-0.28409">
        <ele>102.04</ele>
        <time>2016-02-23T10:57:02Z</time>
      </trkpt>
      <trkpt lat="44.60273" lon="-0.28408">
        <ele>101.56</ele>
        <time>2016-02-23T10:57:14Z</time>
      </trkpt>
      <trkpt lat="44.60259" lon="-0.28404">
        <ele>100.6</ele>
        <time>2016-02-23T10:57:26Z</time>
      </trkpt>
      <trkpt lat="44.60243" lon="-0.28403">
        <ele>99.63</ele>
        <time>2016-02-23T10:57:40Z</time>
      </trkpt>
      <trkpt lat="44.60235" lon="-0.28405">
        <ele>98.67</ele>
        <time>2016-02-23T10:57:50Z</time>
      </trkpt>
      <trkpt lat="44.60225" lon="-0.28409">
        <ele>98.19</ele>
        <time>2016-02-23T10:58:03Z</time>
      </trkpt>
      <trkpt lat="44.60215" lon="-0.28411">
        <ele>97.71</ele>
        <time>2016-02-23T10:58:15Z</time>
      </trkpt>
      <trkpt lat="44.60203" lon="-0.28415">
        <ele>95.79</ele>
        <time>2016-02-23T10:58:28Z</time>
      </trkpt>
      <trkpt lat="44.6019" lon="-0.28418">
        <ele>94.83</ele>
        <time>2016-02-23T10:58:41Z</time>
      </trkpt>
      <trkpt lat="44.6018" lon="-0.28421">
        <ele>93.39</ele>
        <time>2016-02-23T10:58:52Z</time>
      </trkpt>
      <trkpt lat="44.60168" lon="-0.28424">
        <ele>91.46</ele>
        <time>2016-02-23T10:59:04Z</time>
      </trkpt>
      <trkpt lat="44.60156" lon="-0.28428">
        <ele>90.02</ele>
        <time>2016-02-23T10:59:18Z</time>
      </trkpt>
      <trkpt lat="44.60146" lon="-0.28432">
        <ele>87.62</ele>
        <time>2016-02-23T10:59:30Z</time>
      </trkpt>
      <trkpt lat="44.60134" lon="-0.28432">
        <ele>86.66</ele>
        <time>2016-02-23T10:59:41Z</time>
      </trkpt>
      <trkpt lat="44.60121" lon="-0.28427">
        <ele>86.18</ele>
        <time>2016-02-23T10:59:54Z</time>
      </trkpt>
      <trkpt lat="44.60105" lon="-0.28423">
        <ele>84.25</ele>
        <time>2016-02-23T11:00:09Z</time>
      </trkpt>
      <trkpt lat="44.60095" lon="-0.28419">
        <ele>82.81</ele>
        <time>2016-02-23T11:00:22Z</time>
      </trkpt>
      <trkpt lat="44.60082" lon="-0.2842">
        <ele>80.41</ele>
        <time>2016-02-23T11:00:34Z</time>
      </trkpt>
      <trkpt lat="44.60071" lon="-0.2842">
        <ele>78.97</ele>
        <time>2016-02-23T11:00:46Z</time>
      </trkpt>
      <trkpt lat="44.60053" lon="-0.28419">
        <ele>77.52</ele>
        <time>2016-02-23T11:00:59Z</time>
      </trkpt>
      <trkpt lat="44.60042" lon="-0.28415">
        <ele>77.04</ele>
        <time>2016-02-23T11:01:10Z</time>
      </trkpt>
      <trkpt lat="44.60031" lon="-0.28407">
        <ele>76.08</ele>
        <time>2016-02-23T11:01:22Z</time>
      </trkpt>
      <trkpt lat="44.6002" lon="-0.28403">
        <ele>74.16</ele>
        <time>2016-02-23T11:01:36Z</time>
      </trkpt>
      <trkpt lat="44.60007" lon="-0.28392">
        <ele>73.2</ele>
        <time>2016-02-23T11:01:49Z</time>
      </trkpt>
      <trkpt lat="44.60005" lon="-0.28389">
        <ele>73.2</ele>
        <time>2016-02-23T11:01:52Z</time>
      </trkpt>
      <trkpt lat="44.59994" lon="-0.28378">
        <ele>71.76</ele>
        <time>2016-02-23T11:02:05Z</time>
      </trkpt>
      <trkpt lat="44.59992" lon="-0.2836">
        <ele>70.79</ele>
        <time>2016-02-23T11:02:18Z</time>
      </trkpt>
      <trkpt lat="44.59991" lon="-0.28352">
        <ele>70.79</ele>
        <time>2016-02-23T11:02:29Z</time>
      </trkpt>
      <trkpt lat="44.59987" lon="-0.28345">
        <ele>69.83</ele>
        <time>2016-02-23T11:02:45Z</time>
      </trkpt>
      <trkpt lat="44.59983" lon="-0.28332">
        <ele>67.43</ele>
        <time>2016-02-23T11:02:57Z</time>
      </trkpt>
      <trkpt lat="44.59983" lon="-0.28326">
        <ele>65.99</ele>
        <time>2016-02-23T11:03:02Z</time>
      </trkpt>
      <trkpt lat="44.59977" lon="-0.28308">
        <ele>63.1</ele>
        <time>2016-02-23T11:03:14Z</time>
      </trkpt>
      <trkpt lat="44.59973" lon="-0.28294">
        <ele>61.18</ele>
        <time>2016-02-23T11:03:27Z</time>
      </trkpt>
      <trkpt lat="44.59968" lon="-0.28285">
        <ele>60.7</ele>
        <time>2016-02-23T11:03:37Z</time>
      </trkpt>
      <trkpt lat="44.59963" lon="-0.28275">
        <ele>59.74</ele>
        <time>2016-02-23T11:03:50Z</time>
      </trkpt>
      <trkpt lat="44.59955" lon="-0.28275">
        <ele>58.3</ele>
        <time>2016-02-23T11:04:00Z</time>
      </trkpt>
      <trkpt lat="44.59944" lon="-0.28274">
        <ele>57.82</ele>
        <time>2016-02-23T11:04:12Z</time>
      </trkpt>
      <trkpt lat="44.59936" lon="-0.28271">
        <ele>58.78</ele>
        <time>2016-02-23T11:04:25Z</time>
      </trkpt>
      <trkpt lat="44.59924" lon="-0.28271">
        <ele>58.78</ele>
        <time>2016-02-23T11:04:39Z</time>
      </trkpt>
      <trkpt lat="44.59913" lon="-0.28273">
        <ele>58.78</ele>
        <time>2016-02-23T11:04:51Z</time>
      </trkpt>
      <trkpt lat="44.59909" lon="-0.28275">
        <ele>58.78</ele>
        <time>2016-02-23T11:05:02Z</time>
      </trkpt>
      <trkpt lat="44.59905" lon="-0.28279">
        <ele>58.78</ele>
        <time>2016-02-23T11:05:15Z</time>
      </trkpt>
      <trkpt lat="44.599" lon="-0.28283">
        <ele>57.82</ele>
        <time>2016-02-23T11:05:26Z</time>
      </trkpt>
      <trkpt lat="44.5989" lon="-0.28292">
        <ele>55.41</ele>
        <time>2016-02-23T11:05:39Z</time>
      </trkpt>
      <trkpt lat="44.59881" lon="-0.28302">
        <ele>53.97</ele>
        <time>2016-02-23T11:05:51Z</time>
      </trkpt>
      <trkpt lat="44.5988" lon="-0.28303">
        <ele>53.97</ele>
        <time>2016-02-23T11:05:52Z</time>
      </trkpt>
      <trkpt lat="44.59878" lon="-0.28305">
        <ele>53.49</ele>
        <time>2016-02-23T11:05:54Z</time>
      </trkpt>
      <trkpt lat="44.59869" lon="-0.28316">
        <ele>54.45</ele>
        <time>2016-02-23T11:06:06Z</time>
      </trkpt>
      <trkpt lat="44.59868" lon="-0.28317">
        <ele>54.45</ele>
        <time>2016-02-23T11:06:07Z</time>
      </trkpt>
      <trkpt lat="44.59859" lon="-0.28324">
        <ele>53.49</ele>
        <time>2016-02-23T11:06:18Z</time>
      </trkpt>
      <trkpt lat="44.59842" lon="-0.28326">
        <ele>52.53</ele>
        <time>2016-02-23T11:06:32Z</time>
      </trkpt>
      <trkpt lat="44.59838" lon="-0.28326">
        <ele>52.53</ele>
        <time>2016-02-23T11:06:36Z</time>
      </trkpt>
      <trkpt lat="44.59833" lon="-0.28327">
        <ele>53.49</ele>
        <time>2016-02-23T11:06:42Z</time>
      </trkpt>
      <trkpt lat="44.59824" lon="-0.28328">
        <ele>53.49</ele>
        <time>2016-02-23T11:06:53Z</time>
      </trkpt>
      <trkpt lat="44.59815" lon="-0.28329">
        <ele>51.09</ele>
        <time>2016-02-23T11:07:03Z</time>
      </trkpt>
      <trkpt lat="44.59803" lon="-0.2833">
        <ele>52.05</ele>
        <time>2016-02-23T11:07:13Z</time>
      </trkpt>
      <trkpt lat="44.59791" lon="-0.28329">
        <ele>50.13</ele>
        <time>2016-02-23T11:07:26Z</time>
      </trkpt>
      <trkpt lat="44.59781" lon="-0.28326">
        <ele>51.09</ele>
        <time>2016-02-23T11:07:37Z</time>
      </trkpt>
      <trkpt lat="44.59775" lon="-0.28321">
        <ele>51.57</ele>
        <time>2016-02-23T11:07:47Z</time>
      </trkpt>
      <trkpt lat="44.59767" lon="-0.28318">
        <ele>50.61</ele>
        <time>2016-02-23T11:08:00Z</time>
      </trkpt>
      <trkpt lat="44.59766" lon="-0.28317">
        <ele>50.61</ele>
        <time>2016-02-23T11:08:01Z</time>
      </trkpt>
      <trkpt lat="44.59757" lon="-0.28311">
        <ele>50.13</ele>
        <time>2016-02-23T11:08:14Z</time>
      </trkpt>
      <trkpt lat="44.59748" lon="-0.28302">
        <ele>50.13</ele>
        <time>2016-02-23T11:08:26Z</time>
      </trkpt>
      <trkpt lat="44.59741" lon="-0.28293">
        <ele>50.13</ele>
        <time>2016-02-23T11:08:38Z</time>
      </trkpt>
      <trkpt lat="44.59734" lon="-0.28285">
        <ele>50.13</ele>
        <time>2016-02-23T11:08:52Z</time>
      </trkpt>
      <trkpt lat="44.59724" lon="-0.28278">
        <ele>49.16</ele>
        <time>2016-02-23T11:09:07Z</time>
      </trkpt>
      <trkpt lat="44.59717" lon="-0.28276">
        <ele>48.2</ele>
        <time>2016-02-23T11:09:20Z</time>
      </trkpt>
      <trkpt lat="44.59708" lon="-0.28274">
        <ele>46.28</ele>
        <time>2016-02-23T11:09:31Z</time>
      </trkpt>
      <trkpt lat="44.59705" lon="-0.28275">
        <ele>45.32</ele>
        <time>2016-02-23T11:09:34Z</time>
      </trkpt>
      <trkpt lat="44.59695" lon="-0.28271">
        <ele>44.84</ele>
        <time>2016-02-23T11:09:46Z</time>
      </trkpt>
      <trkpt lat="44.59685" lon="-0.28258">
        <ele>44.36</ele>
        <time>2016-02-23T11:09:59Z</time>
      </trkpt>
      <trkpt lat="44.59673" lon="-0.2824">
        <ele>42.92</ele>
        <time>2016-02-23T11:10:14Z</time>
      </trkpt>
      <trkpt lat="44.59664" lon="-0.28223">
        <ele>42.44</ele>
        <time>2016-02-23T11:10:26Z</time>
      </trkpt>
      <trkpt lat="44.5966" lon="-0.28215">
        <ele>41.95</ele>
        <time>2016-02-23T11:10:31Z</time>
      </trkpt>
      <trkpt lat="44.59654" lon="-0.282">
        <ele>41.47</ele>
        <time>2016-02-23T11:10:43Z</time>
      </trkpt>
      <trkpt lat="44.59647" lon="-0.28191">
        <ele>41.47</ele>
        <time>2016-02-23T11:10:52Z</time>
      </trkpt>
      <trkpt lat="44.59639" lon="-0.28188">
        <ele>42.44</ele>
        <time>2016-02-23T11:11:02Z</time>
      </trkpt>
      <trkpt lat="44.59641" lon="-0.28192">
        <ele>42.44</ele>
        <time>2016-02-23T11:11:13Z</time>
      </trkpt>
      <trkpt lat="44.59642" lon="-0.28203">
        <ele>42.44</ele>
        <time>2016-02-23T11:11:24Z</time>
      </trkpt>
      <trkpt lat="44.59641" lon="-0.28212">
        <ele>42.44</ele>
        <time>2016-02-23T11:11:34Z</time>
      </trkpt>
      <trkpt lat="44.59641" lon="-0.28224">
        <ele>42.44</ele>
        <time>2016-02-23T11:11:46Z</time>
      </trkpt>
      <trkpt lat="44.59639" lon="-0.28232">
        <ele>42.44</ele>
        <time>2016-02-23T11:11:54Z</time>
      </trkpt>
      <trkpt lat="44.59632" lon="-0.28238">
        <ele>43.4</ele>
        <time>2016-02-23T11:12:02Z</time>
      </trkpt>
      <trkpt lat="44.5963" lon="-0.28254">
        <ele>45.32</ele>
        <time>2016-02-23T11:12:13Z</time>
      </trkpt>
      <trkpt lat="44.5963" lon="-0.28256">
        <ele>45.32</ele>
        <time>2016-02-23T11:12:15Z</time>
      </trkpt>
      <trkpt lat="44.59629" lon="-0.28262">
        <ele>45.8</ele>
        <time>2016-02-23T11:12:19Z</time>
      </trkpt>
      <trkpt lat="44.59628" lon="-0.28276">
        <ele>46.28</ele>
        <time>2016-02-23T11:12:29Z</time>
      </trkpt>
      <trkpt lat="44.59628" lon="-0.28279">
        <ele>46.76</ele>
        <time>2016-02-23T11:12:31Z</time>
      </trkpt>
      <trkpt lat="44.59629" lon="-0.28293">
        <ele>48.68</ele>
        <time>2016-02-23T11:12:41Z</time>
      </trkpt>
      <trkpt lat="44.59629" lon="-0.28309">
        <ele>48.68</ele>
        <time>2016-02-23T11:12:53Z</time>
      </trkpt>
      <trkpt lat="44.59623" lon="-0.28321">
        <ele>48.68</ele>
        <time>2016-02-23T11:13:05Z</time>
      </trkpt>
      <trkpt lat="44.5962" lon="-0.28328">
        <ele>48.68</ele>
        <time>2016-02-23T11:13:14Z</time>
      </trkpt>
      <trkpt lat="44.59621" lon="-0.2833">
        <ele>48.68</ele>
        <time>2016-02-23T11:13:31Z</time>
      </trkpt>
      <trkpt lat="44.59621" lon="-0.28332">
        <ele>47.24</ele>
        <time>2016-02-23T11:13:33Z</time>
      </trkpt>
      <trkpt lat="44.59621" lon="-0.28344">
        <ele>47.72</ele>
        <time>2016-02-23T11:13:46Z</time>
      </trkpt>
      <trkpt lat="44.5962" lon="-0.28352">
        <ele>46.28</ele>
        <time>2016-02-23T11:13:52Z</time>
      </trkpt>
      <trkpt lat="44.59618" lon="-0.28383">
        <ele>45.8</ele>
        <time>2016-02-23T11:14:13Z</time>
      </trkpt>
      <trkpt lat="44.59615" lon="-0.28408">
        <ele>44.84</ele>
        <time>2016-02-23T11:14:29Z</time>
      </trkpt>
      <trkpt lat="44.5961" lon="-0.28431">
        <ele>40.99</ele>
        <time>2016-02-23T11:14:43Z</time>
      </trkpt>
      <trkpt lat="44.59609" lon="-0.28433">
        <ele>40.51</ele>
        <time>2016-02-23T11:14:45Z</time>
      </trkpt>
      <trkpt lat="44.596" lon="-0.28449">
        <ele>40.03</ele>
        <time>2016-02-23T11:14:58Z</time>
      </trkpt>
      <trkpt lat="44.59589" lon="-0.28467">
        <ele>38.11</ele>
        <time>2016-02-23T11:15:12Z</time>
      </trkpt>
      <trkpt lat="44.5958" lon="-0.28483">
        <ele>38.11</ele>
        <time>2016-02-23T11:15:24Z</time>
      </trkpt>
      <trkpt lat="44.59577" lon="-0.28487">
        <ele>39.07</ele>
        <time>2016-02-23T11:15:28Z</time>
      </trkpt>
      <trkpt lat="44.59573" lon="-0.28496">
        <ele>37.63</ele>
        <time>2016-02-23T11:15:35Z</time>
      </trkpt>
      <trkpt lat="44.59572" lon="-0.28498">
        <ele>40.03</ele>
        <time>2016-02-23T11:15:37Z</time>
      </trkpt>
      <trkpt lat="44.59565" lon="-0.28509">
        <ele>40.51</ele>
        <time>2016-02-23T11:15:46Z</time>
      </trkpt>
      <trkpt lat="44.59559" lon="-0.28519">
        <ele>39.07</ele>
        <time>2016-02-23T11:15:53Z</time>
      </trkpt>
      <trkpt lat="44.59555" lon="-0.28524">
        <ele>40.03</ele>
        <time>2016-02-23T11:15:57Z</time>
      </trkpt>
      <trkpt lat="44.59541" lon="-0.2854">
        <ele>40.51</ele>
        <time>2016-02-23T11:16:12Z</time>
      </trkpt>
      <trkpt lat="44.59533" lon="-0.28544">
        <ele>40.99</ele>
        <time>2016-02-23T11:16:19Z</time>
      </trkpt>
      <trkpt lat="44.59517" lon="-0.28551">
        <ele>40.99</ele>
        <time>2016-02-23T11:16:32Z</time>
      </trkpt>
      <trkpt lat="44.59504" lon="-0.28556">
        <ele>40.99</ele>
        <time>2016-02-23T11:16:43Z</time>
      </trkpt>
      <trkpt lat="44.59489" lon="-0.28559">
        <ele>40.99</ele>
        <time>2016-02-23T11:16:56Z</time>
      </trkpt>
      <trkpt lat="44.59479" lon="-0.28561">
        <ele>40.99</ele>
        <time>2016-02-23T11:17:06Z</time>
      </trkpt>
      <trkpt lat="44.5947" lon="-0.28564">
        <ele>40.03</ele>
        <time>2016-02-23T11:17:16Z</time>
      </trkpt>
      <trkpt lat="44.59456" lon="-0.28566">
        <ele>40.03</ele>
        <time>2016-02-23T11:17:27Z</time>
      </trkpt>
      <trkpt lat="44.5944" lon="-0.28562">
        <ele>40.03</ele>
        <time>2016-02-23T11:17:40Z</time>
      </trkpt>
      <trkpt lat="44.59425" lon="-0.28556">
        <ele>39.55</ele>
        <time>2016-02-23T11:17:54Z</time>
      </trkpt>
      <trkpt lat="44.59413" lon="-0.28548">
        <ele>39.07</ele>
        <time>2016-02-23T11:18:06Z</time>
      </trkpt>
      <trkpt lat="44.59404" lon="-0.28529">
        <ele>39.07</ele>
        <time>2016-02-23T11:18:20Z</time>
      </trkpt>
      <trkpt lat="44.59404" lon="-0.28527">
        <ele>39.07</ele>
        <time>2016-02-23T11:18:31Z</time>
      </trkpt>
      <trkpt lat="44.59398" lon="-0.28518">
        <ele>40.51</ele>
        <time>2016-02-23T11:18:43Z</time>
      </trkpt>
      <trkpt lat="44.59397" lon="-0.28513">
        <ele>39.07</ele>
        <time>2016-02-23T11:18:53Z</time>
      </trkpt>
      <trkpt lat="44.59398" lon="-0.28512">
        <ele>40.51</ele>
        <time>2016-02-23T11:18:59Z</time>
      </trkpt>
      <trkpt lat="44.5939" lon="-0.28501">
        <ele>40.51</ele>
        <time>2016-02-23T11:19:10Z</time>
      </trkpt>
      <trkpt lat="44.59379" lon="-0.28484">
        <ele>40.99</ele>
        <time>2016-02-23T11:19:25Z</time>
      </trkpt>
      <trkpt lat="44.59369" lon="-0.28472">
        <ele>41.47</ele>
        <time>2016-02-23T11:19:36Z</time>
      </trkpt>
      <trkpt lat="44.59358" lon="-0.28455">
        <ele>41.47</ele>
        <time>2016-02-23T11:19:49Z</time>
      </trkpt>
      <trkpt lat="44.59351" lon="-0.28443">
        <ele>41.47</ele>
        <time>2016-02-23T11:20:01Z</time>
      </trkpt>
      <trkpt lat="44.5934" lon="-0.28424">
        <ele>41.47</ele>
        <time>2016-02-23T11:20:15Z</time>
      </trkpt>
      <trkpt lat="44.59331" lon="-0.28407">
        <ele>41.47</ele>
        <time>2016-02-23T11:20:29Z</time>
      </trkpt>
      <trkpt lat="44.59322" lon="-0.28389">
        <ele>41.95</ele>
        <time>2016-02-23T11:20:42Z</time>
      </trkpt>
      <trkpt lat="44.59316" lon="-0.28385">
        <ele>40.51</ele>
        <time>2016-02-23T11:20:49Z</time>
      </trkpt>
      <trkpt lat="44.59306" lon="-0.28384">
        <ele>39.55</ele>
        <time>2016-02-23T11:20:59Z</time>
      </trkpt>
      <trkpt lat="44.59304" lon="-0.28373">
        <ele>39.55</ele>
        <time>2016-02-23T11:21:10Z</time>
      </trkpt>
      <trkpt lat="44.59308" lon="-0.28364">
        <ele>41.47</ele>
        <time>2016-02-23T11:21:20Z</time>
      </trkpt>
      <trkpt lat="44.59314" lon="-0.28355">
        <ele>43.4</ele>
        <time>2016-02-23T11:21:34Z</time>
      </trkpt>
      <trkpt lat="44.59322" lon="-0.28346">
        <ele>46.76</ele>
        <time>2016-02-23T11:21:48Z</time>
      </trkpt>
      <trkpt lat="44.59329" lon="-0.28341">
        <ele>48.68</ele>
        <time>2016-02-23T11:22:00Z</time>
      </trkpt>
      <trkpt lat="44.59329" lon="-0.28331">
        <ele>51.57</ele>
        <time>2016-02-23T11:22:11Z</time>
      </trkpt>
      <trkpt lat="44.59324" lon="-0.2832">
        <ele>53.01</ele>
        <time>2016-02-23T11:22:23Z</time>
      </trkpt>
      <trkpt lat="44.59319" lon="-0.2831">
        <ele>56.37</ele>
        <time>2016-02-23T11:22:34Z</time>
      </trkpt>
      <trkpt lat="44.59316" lon="-0.28301">
        <ele>57.34</ele>
        <time>2016-02-23T11:22:45Z</time>
      </trkpt>
      <trkpt lat="44.59312" lon="-0.28298">
        <ele>59.26</ele>
        <time>2016-02-23T11:22:55Z</time>
      </trkpt>
      <trkpt lat="44.59305" lon="-0.28292">
        <ele>61.66</ele>
        <time>2016-02-23T11:23:05Z</time>
      </trkpt>
      <trkpt lat="44.59299" lon="-0.2828">
        <ele>63.1</ele>
        <time>2016-02-23T11:23:18Z</time>
      </trkpt>
      <trkpt lat="44.59296" lon="-0.28271">
        <ele>65.03</ele>
        <time>2016-02-23T11:23:28Z</time>
      </trkpt>
      <trkpt lat="44.59302" lon="-0.28275">
        <ele>65.99</ele>
        <time>2016-02-23T11:23:39Z</time>
      </trkpt>
      <trkpt lat="44.59307" lon="-0.28282">
        <ele>66.47</ele>
        <time>2016-02-23T11:23:50Z</time>
      </trkpt>
      <trkpt lat="44.59311" lon="-0.28286">
        <ele>65.03</ele>
        <time>2016-02-23T11:23:55Z</time>
      </trkpt>
      <trkpt lat="44.59317" lon="-0.2829">
        <ele>65.99</ele>
        <time>2016-02-23T11:24:03Z</time>
      </trkpt>
      <trkpt lat="44.59325" lon="-0.28297">
        <ele>65.99</ele>
        <time>2016-02-23T11:24:14Z</time>
      </trkpt>
      <trkpt lat="44.59334" lon="-0.28308">
        <ele>67.43</ele>
        <time>2016-02-23T11:24:27Z</time>
      </trkpt>
      <trkpt lat="44.59342" lon="-0.28317">
        <ele>66.95</ele>
        <time>2016-02-23T11:24:36Z</time>
      </trkpt>
      <trkpt lat="44.59345" lon="-0.28323">
        <ele>65.51</ele>
        <time>2016-02-23T11:24:41Z</time>
      </trkpt>
      <trkpt lat="44.5935" lon="-0.28329">
        <ele>65.51</ele>
        <time>2016-02-23T11:24:51Z</time>
      </trkpt>
      <trkpt lat="44.59352" lon="-0.28329">
        <ele>66.95</ele>
        <time>2016-02-23T11:25:05Z</time>
      </trkpt>
      <trkpt lat="44.59348" lon="-0.2833">
        <ele>66.95</ele>
        <time>2016-02-23T11:25:24Z</time>
      </trkpt>
      <trkpt lat="44.59353" lon="-0.28334">
        <ele>66.95</ele>
        <time>2016-02-23T11:25:42Z</time>
      </trkpt>
      <trkpt lat="44.59357" lon="-0.28341">
        <ele>66.95</ele>
        <time>2016-02-23T11:25:54Z</time>
      </trkpt>
      <trkpt lat="44.59357" lon="-0.28346">
        <ele>66.95</ele>
        <time>2016-02-23T11:26:06Z</time>
      </trkpt>
      <trkpt lat="44.5936" lon="-0.28353">
        <ele>66.95</ele>
        <time>2016-02-23T11:26:17Z</time>
      </trkpt>
      <trkpt lat="44.59361" lon="-0.2836">
        <ele>66.95</ele>
        <time>2016-02-23T11:26:35Z</time>
      </trkpt>
      <trkpt lat="44.59361" lon="-0.28364">
        <ele>66.95</ele>
        <time>2016-02-23T11:26:48Z</time>
      </trkpt>
      <trkpt lat="44.59364" lon="-0.2837">
        <ele>66.95</ele>
        <time>2016-02-23T11:27:00Z</time>
      </trkpt>
      <trkpt lat="44.59368" lon="-0.28373">
        <ele>66.95</ele>
        <time>2016-02-23T11:27:13Z</time>
      </trkpt>
      <trkpt lat="44.59372" lon="-0.28383">
        <ele>67.43</ele>
        <time>2016-02-23T11:27:27Z</time>
      </trkpt>
      <trkpt lat="44.59375" lon="-0.28394">
        <ele>65.99</ele>
        <time>2016-02-23T11:27:37Z</time>
      </trkpt>
      <trkpt lat="44.59375" lon="-0.28396">
        <ele>65.99</ele>
        <time>2016-02-23T11:27:50Z</time>
      </trkpt>
      <trkpt lat="44.59376" lon="-0.28396">
        <ele>67.43</ele>
        <time>2016-02-23T11:27:56Z</time>
      </trkpt>
      <trkpt lat="44.59377" lon="-0.28402">
        <ele>65.99</ele>
        <time>2016-02-23T11:28:10Z</time>
      </trkpt>
      <trkpt lat="44.59377" lon="-0.28407">
        <ele>66.47</ele>
        <time>2016-02-23T11:28:27Z</time>
      </trkpt>
      <trkpt lat="44.59376" lon="-0.28406">
        <ele>66.47</ele>
        <time>2016-02-23T11:28:49Z</time>
      </trkpt>
      <trkpt lat="44.59376" lon="-0.28404">
        <ele>66.47</ele>
        <time>2016-02-23T11:29:09Z</time>
      </trkpt>
      <trkpt lat="44.59373" lon="-0.2841">
        <ele>65.99</ele>
        <time>2016-02-23T11:29:23Z</time>
      </trkpt>
      <trkpt lat="44.59381" lon="-0.28413">
        <ele>65.99</ele>
        <time>2016-02-23T11:29:37Z</time>
      </trkpt>
      <trkpt lat="44.5939" lon="-0.28424">
        <ele>65.99</ele>
        <time>2016-02-23T11:29:49Z</time>
      </trkpt>
      <trkpt lat="44.59394" lon="-0.2843">
        <ele>65.99</ele>
        <time>2016-02-23T11:29:56Z</time>
      </trkpt>
      <trkpt lat="44.59398" lon="-0.28436">
        <ele>65.99</ele>
        <time>2016-02-23T11:30:08Z</time>
      </trkpt>
      <trkpt lat="44.59399" lon="-0.28442">
        <ele>65.03</ele>
        <time>2016-02-23T11:30:23Z</time>
      </trkpt>
      <trkpt lat="44.59402" lon="-0.28445">
        <ele>61.66</ele>
        <time>2016-02-23T11:30:26Z</time>
      </trkpt>
      <trkpt lat="44.59405" lon="-0.28448">
        <ele>65.99</ele>
        <time>2016-02-23T11:30:31Z</time>
      </trkpt>
      <trkpt lat="44.59405" lon="-0.28447">
        <ele>66.95</ele>
        <time>2016-02-23T11:30:33Z</time>
      </trkpt>
      <trkpt lat="44.59402" lon="-0.2844">
        <ele>65.99</ele>
        <time>2016-02-23T11:30:45Z</time>
      </trkpt>
      <trkpt lat="44.59399" lon="-0.28437">
        <ele>67.43</ele>
        <time>2016-02-23T11:31:00Z</time>
      </trkpt>
      <trkpt lat="44.59397" lon="-0.28431">
        <ele>69.83</ele>
        <time>2016-02-23T11:31:12Z</time>
      </trkpt>
      <trkpt lat="44.59397" lon="-0.28428">
        <ele>72.24</ele>
        <time>2016-02-23T11:31:16Z</time>
      </trkpt>
      <trkpt lat="44.59402" lon="-0.28425">
        <ele>73.2</ele>
        <time>2016-02-23T11:31:26Z</time>
      </trkpt>
      <trkpt lat="44.59405" lon="-0.28422">
        <ele>73.68</ele>
        <time>2016-02-23T11:31:39Z</time>
      </trkpt>
      <trkpt lat="44.59404" lon="-0.28421">
        <ele>74.16</ele>
        <time>2016-02-23T11:31:50Z</time>
      </trkpt>
      <trkpt lat="44.59403" lon="-0.28423">
        <ele>73.2</ele>
        <time>2016-02-23T11:31:57Z</time>
      </trkpt>
      <trkpt lat="44.59403" lon="-0.28423">
        <ele>73.2</ele>
        <time>2016-02-23T11:32:11Z</time>
      </trkpt>
      <trkpt lat="44.59401" lon="-0.28421">
        <ele>73.2</ele>
        <time>2016-02-23T11:32:22Z</time>
      </trkpt>
      <trkpt lat="44.594" lon="-0.28412">
        <ele>73.2</ele>
        <time>2016-02-23T11:32:32Z</time>
      </trkpt>
      <trkpt lat="44.59397" lon="-0.28407">
        <ele>74.64</ele>
        <time>2016-02-23T11:32:37Z</time>
      </trkpt>
      <trkpt lat="44.59392" lon="-0.2839">
        <ele>74.64</ele>
        <time>2016-02-23T11:32:49Z</time>
      </trkpt>
      <trkpt lat="44.59385" lon="-0.28375">
        <ele>75.6</ele>
        <time>2016-02-23T11:33:00Z</time>
      </trkpt>
      <trkpt lat="44.5938" lon="-0.28362">
        <ele>76.08</ele>
        <time>2016-02-23T11:33:13Z</time>
      </trkpt>
      <trkpt lat="44.59378" lon="-0.28347">
        <ele>76.08</ele>
        <time>2016-02-23T11:33:25Z</time>
      </trkpt>
      <trkpt lat="44.59379" lon="-0.2833">
        <ele>77.52</ele>
        <time>2016-02-23T11:33:38Z</time>
      </trkpt>
      <trkpt lat="44.59378" lon="-0.28299">
        <ele>78.48</ele>
        <time>2016-02-23T11:33:57Z</time>
      </trkpt>
      <trkpt lat="44.59378" lon="-0.28273">
        <ele>78</ele>
        <time>2016-02-23T11:34:16Z</time>
      </trkpt>
      <trkpt lat="44.59373" lon="-0.28264">
        <ele>79.93</ele>
        <time>2016-02-23T11:34:33Z</time>
      </trkpt>
      <trkpt lat="44.59374" lon="-0.28259">
        <ele>78.48</ele>
        <time>2016-02-23T11:34:42Z</time>
      </trkpt>
      <trkpt lat="44.59374" lon="-0.28263">
        <ele>79.45</ele>
        <time>2016-02-23T11:34:51Z</time>
      </trkpt>
      <trkpt lat="44.59374" lon="-0.28262">
        <ele>80.41</ele>
        <time>2016-02-23T11:35:03Z</time>
      </trkpt>
      <trkpt lat="44.59373" lon="-0.28261">
        <ele>80.41</ele>
        <time>2016-02-23T11:35:20Z</time>
      </trkpt>
    </trkseg>
  </trk>
</gpx>